<?xml version="1.0" encoding="UTF-8" standalone="no" ?>
<gpx xmlns="http://www.topografix.com/GPX/1/1" xmlns:xsi="http://www.w3.org/2001/XMLSchema-instance" xsi:schemaLocation="http://www.topografix.com/GPX/1/1 http://www.topografix.com/GPX/1/1/gpx.xsd" version="1.1" creator="VisuGPX - https://www.visugpx.com">
  <metadata>
    <name>début transmontdo</name>
    <desc><![CDATA[tombé sur le tracé de la transmontdo je l'ai suivie un peu, et un peu de jardinage]]></desc>
  </metadata>
  <trk>
    <name><![CDATA[ACTIVE LOG135452]]></name>
    <trkseg>
      <trkpt lat="45.86972" lon="4.81989">
        <ele>223.752</ele>
        <time>2012-05-19T11:54:50Z</time>
      </trkpt>
      <trkpt lat="45.86971" lon="4.81987">
        <ele>223.48</ele>
        <time>2012-05-19T11:54:52Z</time>
      </trkpt>
      <trkpt lat="45.86981" lon="4.81978">
        <ele>222.575</ele>
        <time>2012-05-19T11:55:03Z</time>
      </trkpt>
      <trkpt lat="45.86986" lon="4.81979">
        <ele>221.194</ele>
        <time>2012-05-19T11:55:09Z</time>
      </trkpt>
      <trkpt lat="45.86991" lon="4.81972">
        <ele>219.98</ele>
        <time>2012-05-19T11:55:13Z</time>
      </trkpt>
      <trkpt lat="45.87008" lon="4.81955">
        <ele>217.419</ele>
        <time>2012-05-19T11:55:22Z</time>
      </trkpt>
      <trkpt lat="45.8703" lon="4.81958">
        <ele>215.888</ele>
        <time>2012-05-19T11:55:29Z</time>
      </trkpt>
      <trkpt lat="45.87055" lon="4.81966">
        <ele>217.454</ele>
        <time>2012-05-19T11:55:39Z</time>
      </trkpt>
      <trkpt lat="45.871" lon="4.81976">
        <ele>220.586</ele>
        <time>2012-05-19T11:55:55Z</time>
      </trkpt>
      <trkpt lat="45.87127" lon="4.81979">
        <ele>221.581</ele>
        <time>2012-05-19T11:56:06Z</time>
      </trkpt>
      <trkpt lat="45.87159" lon="4.81975">
        <ele>224.125</ele>
        <time>2012-05-19T11:56:18Z</time>
      </trkpt>
      <trkpt lat="45.87185" lon="4.81973">
        <ele>227.002</ele>
        <time>2012-05-19T11:56:29Z</time>
      </trkpt>
      <trkpt lat="45.87205" lon="4.81966">
        <ele>227.915</ele>
        <time>2012-05-19T11:56:37Z</time>
      </trkpt>
      <trkpt lat="45.87242" lon="4.81946">
        <ele>229.377</ele>
        <time>2012-05-19T11:56:48Z</time>
      </trkpt>
      <trkpt lat="45.87289" lon="4.81915">
        <ele>230.774</ele>
        <time>2012-05-19T11:57:03Z</time>
      </trkpt>
      <trkpt lat="45.87301" lon="4.81877">
        <ele>231.548</ele>
        <time>2012-05-19T11:57:11Z</time>
      </trkpt>
      <trkpt lat="45.87309" lon="4.81842">
        <ele>231.352</ele>
        <time>2012-05-19T11:57:19Z</time>
      </trkpt>
      <trkpt lat="45.87322" lon="4.81794">
        <ele>231.66</ele>
        <time>2012-05-19T11:57:29Z</time>
      </trkpt>
      <trkpt lat="45.87338" lon="4.81742">
        <ele>233.225</ele>
        <time>2012-05-19T11:57:41Z</time>
      </trkpt>
      <trkpt lat="45.87354" lon="4.81692">
        <ele>232.815</ele>
        <time>2012-05-19T11:57:52Z</time>
      </trkpt>
      <trkpt lat="45.87366" lon="4.81649">
        <ele>231.531</ele>
        <time>2012-05-19T11:58:02Z</time>
      </trkpt>
      <trkpt lat="45.87382" lon="4.81606">
        <ele>231.629</ele>
        <time>2012-05-19T11:58:12Z</time>
      </trkpt>
      <trkpt lat="45.87393" lon="4.81551">
        <ele>233.865</ele>
        <time>2012-05-19T11:58:25Z</time>
      </trkpt>
      <trkpt lat="45.87412" lon="4.81503">
        <ele>238.163</ele>
        <time>2012-05-19T11:58:37Z</time>
      </trkpt>
      <trkpt lat="45.87444" lon="4.81433">
        <ele>242.016</ele>
        <time>2012-05-19T11:58:54Z</time>
      </trkpt>
      <trkpt lat="45.87475" lon="4.8138">
        <ele>244.31</ele>
        <time>2012-05-19T11:59:09Z</time>
      </trkpt>
      <trkpt lat="45.87501" lon="4.8133">
        <ele>246.473</ele>
        <time>2012-05-19T11:59:23Z</time>
      </trkpt>
      <trkpt lat="45.87508" lon="4.81281">
        <ele>248.439</ele>
        <time>2012-05-19T11:59:35Z</time>
      </trkpt>
      <trkpt lat="45.87521" lon="4.81218">
        <ele>249.021</ele>
        <time>2012-05-19T11:59:51Z</time>
      </trkpt>
      <trkpt lat="45.87534" lon="4.81175">
        <ele>250.383</ele>
        <time>2012-05-19T12:00:04Z</time>
      </trkpt>
      <trkpt lat="45.87546" lon="4.81132">
        <ele>250.527</ele>
        <time>2012-05-19T12:00:18Z</time>
      </trkpt>
      <trkpt lat="45.87555" lon="4.81098">
        <ele>252.323</ele>
        <time>2012-05-19T12:00:30Z</time>
      </trkpt>
      <trkpt lat="45.87564" lon="4.81067">
        <ele>254.283</ele>
        <time>2012-05-19T12:00:42Z</time>
      </trkpt>
      <trkpt lat="45.87578" lon="4.81027">
        <ele>260.719</ele>
        <time>2012-05-19T12:00:55Z</time>
      </trkpt>
      <trkpt lat="45.87591" lon="4.80984">
        <ele>262.471</ele>
        <time>2012-05-19T12:01:08Z</time>
      </trkpt>
      <trkpt lat="45.87611" lon="4.80947">
        <ele>262.45</ele>
        <time>2012-05-19T12:01:21Z</time>
      </trkpt>
      <trkpt lat="45.87623" lon="4.80909">
        <ele>261.827</ele>
        <time>2012-05-19T12:01:31Z</time>
      </trkpt>
      <trkpt lat="45.87625" lon="4.80905">
        <ele>262.148</ele>
        <time>2012-05-19T12:01:32Z</time>
      </trkpt>
      <trkpt lat="45.87636" lon="4.80838">
        <ele>260.82</ele>
        <time>2012-05-19T12:01:42Z</time>
      </trkpt>
      <trkpt lat="45.87637" lon="4.8083">
        <ele>260.777</ele>
        <time>2012-05-19T12:01:43Z</time>
      </trkpt>
      <trkpt lat="45.87646" lon="4.80783">
        <ele>259.985</ele>
        <time>2012-05-19T12:01:51Z</time>
      </trkpt>
      <trkpt lat="45.87656" lon="4.80736">
        <ele>258.659</ele>
        <time>2012-05-19T12:02:04Z</time>
      </trkpt>
      <trkpt lat="45.87663" lon="4.80704">
        <ele>259.832</ele>
        <time>2012-05-19T12:02:15Z</time>
      </trkpt>
      <trkpt lat="45.87672" lon="4.80664">
        <ele>261.378</ele>
        <time>2012-05-19T12:02:25Z</time>
      </trkpt>
      <trkpt lat="45.87677" lon="4.80638">
        <ele>262.968</ele>
        <time>2012-05-19T12:02:30Z</time>
      </trkpt>
      <trkpt lat="45.8768" lon="4.80618">
        <ele>263.573</ele>
        <time>2012-05-19T12:02:33Z</time>
      </trkpt>
      <trkpt lat="45.87668" lon="4.80594">
        <ele>263.463</ele>
        <time>2012-05-19T12:02:39Z</time>
      </trkpt>
      <trkpt lat="45.87658" lon="4.80594">
        <ele>265.116</ele>
        <time>2012-05-19T12:02:46Z</time>
      </trkpt>
      <trkpt lat="45.87656" lon="4.80594">
        <ele>266.069</ele>
        <time>2012-05-19T12:02:47Z</time>
      </trkpt>
      <trkpt lat="45.87633" lon="4.80594">
        <ele>265.916</ele>
        <time>2012-05-19T12:03:01Z</time>
      </trkpt>
      <trkpt lat="45.87623" lon="4.80594">
        <ele>268.131</ele>
        <time>2012-05-19T12:03:09Z</time>
      </trkpt>
      <trkpt lat="45.87604" lon="4.80594">
        <ele>269.523</ele>
        <time>2012-05-19T12:03:21Z</time>
      </trkpt>
      <trkpt lat="45.87599" lon="4.80594">
        <ele>269.204</ele>
        <time>2012-05-19T12:03:27Z</time>
      </trkpt>
      <trkpt lat="45.87599" lon="4.80594">
        <ele>270.21</ele>
        <time>2012-05-19T12:03:42Z</time>
      </trkpt>
      <trkpt lat="45.87567" lon="4.80594">
        <ele>271.702</ele>
        <time>2012-05-19T12:03:54Z</time>
      </trkpt>
      <trkpt lat="45.87559" lon="4.80594">
        <ele>275.638</ele>
        <time>2012-05-19T12:04:04Z</time>
      </trkpt>
      <trkpt lat="45.87544" lon="4.80593">
        <ele>279.543</ele>
        <time>2012-05-19T12:04:15Z</time>
      </trkpt>
      <trkpt lat="45.87533" lon="4.80591">
        <ele>282.236</ele>
        <time>2012-05-19T12:04:22Z</time>
      </trkpt>
      <trkpt lat="45.87514" lon="4.80588">
        <ele>284.027</ele>
        <time>2012-05-19T12:04:33Z</time>
      </trkpt>
      <trkpt lat="45.87505" lon="4.80584">
        <ele>288.902</ele>
        <time>2012-05-19T12:04:45Z</time>
      </trkpt>
      <trkpt lat="45.87505" lon="4.80584">
        <ele>289.184</ele>
        <time>2012-05-19T12:04:46Z</time>
      </trkpt>
      <trkpt lat="45.87505" lon="4.80584">
        <ele>289.975</ele>
        <time>2012-05-19T12:04:48Z</time>
      </trkpt>
      <trkpt lat="45.87505" lon="4.80584">
        <ele>290.837</ele>
        <time>2012-05-19T12:04:51Z</time>
      </trkpt>
      <trkpt lat="45.87505" lon="4.80584">
        <ele>293.481</ele>
        <time>2012-05-19T12:05:04Z</time>
      </trkpt>
      <trkpt lat="45.87505" lon="4.80584">
        <ele>294.675</ele>
        <time>2012-05-19T12:05:14Z</time>
      </trkpt>
      <trkpt lat="45.87487" lon="4.80597">
        <ele>296.304</ele>
        <time>2012-05-19T12:05:25Z</time>
      </trkpt>
      <trkpt lat="45.87487" lon="4.8061">
        <ele>299.043</ele>
        <time>2012-05-19T12:05:33Z</time>
      </trkpt>
      <trkpt lat="45.87487" lon="4.80622">
        <ele>301.489</ele>
        <time>2012-05-19T12:05:40Z</time>
      </trkpt>
      <trkpt lat="45.87487" lon="4.80648">
        <ele>304.844</ele>
        <time>2012-05-19T12:05:47Z</time>
      </trkpt>
      <trkpt lat="45.87478" lon="4.80662">
        <ele>302.554</ele>
        <time>2012-05-19T12:05:55Z</time>
      </trkpt>
      <trkpt lat="45.87464" lon="4.80659">
        <ele>299.707</ele>
        <time>2012-05-19T12:06:04Z</time>
      </trkpt>
      <trkpt lat="45.87447" lon="4.80656">
        <ele>298.226</ele>
        <time>2012-05-19T12:06:15Z</time>
      </trkpt>
      <trkpt lat="45.87444" lon="4.80655">
        <ele>299.324</ele>
        <time>2012-05-19T12:06:17Z</time>
      </trkpt>
      <trkpt lat="45.87438" lon="4.80654">
        <ele>300.713</ele>
        <time>2012-05-19T12:06:23Z</time>
      </trkpt>
      <trkpt lat="45.87419" lon="4.8065">
        <ele>303.453</ele>
        <time>2012-05-19T12:06:36Z</time>
      </trkpt>
      <trkpt lat="45.8741" lon="4.80648">
        <ele>305.466</ele>
        <time>2012-05-19T12:06:42Z</time>
      </trkpt>
      <trkpt lat="45.87399" lon="4.80648">
        <ele>307.976</ele>
        <time>2012-05-19T12:06:50Z</time>
      </trkpt>
      <trkpt lat="45.8739" lon="4.80676">
        <ele>308.463</ele>
        <time>2012-05-19T12:07:01Z</time>
      </trkpt>
      <trkpt lat="45.87378" lon="4.80708">
        <ele>309.457</ele>
        <time>2012-05-19T12:07:13Z</time>
      </trkpt>
      <trkpt lat="45.87376" lon="4.80756">
        <ele>307.274</ele>
        <time>2012-05-19T12:07:22Z</time>
      </trkpt>
      <trkpt lat="45.87367" lon="4.80844">
        <ele>305.529</ele>
        <time>2012-05-19T12:07:36Z</time>
      </trkpt>
      <trkpt lat="45.87362" lon="4.80875">
        <ele>304.115</ele>
        <time>2012-05-19T12:07:45Z</time>
      </trkpt>
      <trkpt lat="45.87359" lon="4.80886">
        <ele>305.119</ele>
        <time>2012-05-19T12:07:52Z</time>
      </trkpt>
      <trkpt lat="45.87359" lon="4.80886">
        <ele>305.769</ele>
        <time>2012-05-19T12:07:59Z</time>
      </trkpt>
      <trkpt lat="45.87359" lon="4.80886">
        <ele>306.6</ele>
        <time>2012-05-19T12:08:06Z</time>
      </trkpt>
      <trkpt lat="45.87346" lon="4.80987">
        <ele>307.636</ele>
        <time>2012-05-19T12:08:14Z</time>
      </trkpt>
      <trkpt lat="45.87345" lon="4.80994">
        <ele>308.047</ele>
        <time>2012-05-19T12:08:16Z</time>
      </trkpt>
      <trkpt lat="45.8734" lon="4.81014">
        <ele>309.142</ele>
        <time>2012-05-19T12:08:21Z</time>
      </trkpt>
      <trkpt lat="45.87338" lon="4.81035">
        <ele>306.339</ele>
        <time>2012-05-19T12:08:27Z</time>
      </trkpt>
      <trkpt lat="45.87334" lon="4.81054">
        <ele>302.149</ele>
        <time>2012-05-19T12:08:34Z</time>
      </trkpt>
      <trkpt lat="45.87328" lon="4.81073">
        <ele>298.051</ele>
        <time>2012-05-19T12:08:41Z</time>
      </trkpt>
      <trkpt lat="45.87312" lon="4.81073">
        <ele>298.332</ele>
        <time>2012-05-19T12:08:51Z</time>
      </trkpt>
      <trkpt lat="45.873" lon="4.81071">
        <ele>299.063</ele>
        <time>2012-05-19T12:08:59Z</time>
      </trkpt>
      <trkpt lat="45.87285" lon="4.81066">
        <ele>299.38</ele>
        <time>2012-05-19T12:09:11Z</time>
      </trkpt>
      <trkpt lat="45.87272" lon="4.81062">
        <ele>302.946</ele>
        <time>2012-05-19T12:09:23Z</time>
      </trkpt>
      <trkpt lat="45.87267" lon="4.81055">
        <ele>303.915</ele>
        <time>2012-05-19T12:09:33Z</time>
      </trkpt>
      <trkpt lat="45.87261" lon="4.8105">
        <ele>308.161</ele>
        <time>2012-05-19T12:09:44Z</time>
      </trkpt>
      <trkpt lat="45.87247" lon="4.81041">
        <ele>311.019</ele>
        <time>2012-05-19T12:09:58Z</time>
      </trkpt>
      <trkpt lat="45.87244" lon="4.81042">
        <ele>314.667</ele>
        <time>2012-05-19T12:10:12Z</time>
      </trkpt>
      <trkpt lat="45.87233" lon="4.81043">
        <ele>315.568</ele>
        <time>2012-05-19T12:10:37Z</time>
      </trkpt>
      <trkpt lat="45.87218" lon="4.81042">
        <ele>316.994</ele>
        <time>2012-05-19T12:10:53Z</time>
      </trkpt>
      <trkpt lat="45.87215" lon="4.81026">
        <ele>318.062</ele>
        <time>2012-05-19T12:11:14Z</time>
      </trkpt>
      <trkpt lat="45.87196" lon="4.81008">
        <ele>320.686</ele>
        <time>2012-05-19T12:11:34Z</time>
      </trkpt>
      <trkpt lat="45.87195" lon="4.81001">
        <ele>322.152</ele>
        <time>2012-05-19T12:11:49Z</time>
      </trkpt>
      <trkpt lat="45.87195" lon="4.80993">
        <ele>323.683</ele>
        <time>2012-05-19T12:12:01Z</time>
      </trkpt>
      <trkpt lat="45.87209" lon="4.8098">
        <ele>324.173</ele>
        <time>2012-05-19T12:12:33Z</time>
      </trkpt>
      <trkpt lat="45.87228" lon="4.80958">
        <ele>325.358</ele>
        <time>2012-05-19T12:12:47Z</time>
      </trkpt>
      <trkpt lat="45.87216" lon="4.80953">
        <ele>327.589</ele>
        <time>2012-05-19T12:13:03Z</time>
      </trkpt>
      <trkpt lat="45.87201" lon="4.8095">
        <ele>329.163</ele>
        <time>2012-05-19T12:13:19Z</time>
      </trkpt>
      <trkpt lat="45.87197" lon="4.80949">
        <ele>330.59</ele>
        <time>2012-05-19T12:13:36Z</time>
      </trkpt>
      <trkpt lat="45.87195" lon="4.80946">
        <ele>331.409</ele>
        <time>2012-05-19T12:14:28Z</time>
      </trkpt>
      <trkpt lat="45.87168" lon="4.80945">
        <ele>333.259</ele>
        <time>2012-05-19T12:15:13Z</time>
      </trkpt>
      <trkpt lat="45.87138" lon="4.80942">
        <ele>337.978</ele>
        <time>2012-05-19T12:15:33Z</time>
      </trkpt>
      <trkpt lat="45.87112" lon="4.80955">
        <ele>343.833</ele>
        <time>2012-05-19T12:15:57Z</time>
      </trkpt>
      <trkpt lat="45.87101" lon="4.80963">
        <ele>346.662</ele>
        <time>2012-05-19T12:16:13Z</time>
      </trkpt>
      <trkpt lat="45.87089" lon="4.80979">
        <ele>349.896</ele>
        <time>2012-05-19T12:16:24Z</time>
      </trkpt>
      <trkpt lat="45.87086" lon="4.80991">
        <ele>352.968</ele>
        <time>2012-05-19T12:16:32Z</time>
      </trkpt>
      <trkpt lat="45.87086" lon="4.80999">
        <ele>354.689</ele>
        <time>2012-05-19T12:16:53Z</time>
      </trkpt>
      <trkpt lat="45.8708" lon="4.80998">
        <ele>356.769</ele>
        <time>2012-05-19T12:17:17Z</time>
      </trkpt>
      <trkpt lat="45.8708" lon="4.80997">
        <ele>357.86</ele>
        <time>2012-05-19T12:17:45Z</time>
      </trkpt>
      <trkpt lat="45.87059" lon="4.80989">
        <ele>361.351</ele>
        <time>2012-05-19T12:18:37Z</time>
      </trkpt>
      <trkpt lat="45.87041" lon="4.80984">
        <ele>365.086</ele>
        <time>2012-05-19T12:18:56Z</time>
      </trkpt>
      <trkpt lat="45.87028" lon="4.80978">
        <ele>370.024</ele>
        <time>2012-05-19T12:19:10Z</time>
      </trkpt>
      <trkpt lat="45.87028" lon="4.80976">
        <ele>370.35</ele>
        <time>2012-05-19T12:19:24Z</time>
      </trkpt>
      <trkpt lat="45.87025" lon="4.80974">
        <ele>371.247</ele>
        <time>2012-05-19T12:19:35Z</time>
      </trkpt>
      <trkpt lat="45.87016" lon="4.80966">
        <ele>373.701</ele>
        <time>2012-05-19T12:19:51Z</time>
      </trkpt>
      <trkpt lat="45.87008" lon="4.80958">
        <ele>375.255</ele>
        <time>2012-05-19T12:20:06Z</time>
      </trkpt>
      <trkpt lat="45.87009" lon="4.80956">
        <ele>375.281</ele>
        <time>2012-05-19T12:20:10Z</time>
      </trkpt>
      <trkpt lat="45.8702" lon="4.80933">
        <ele>375.171</ele>
        <time>2012-05-19T12:20:21Z</time>
      </trkpt>
      <trkpt lat="45.87028" lon="4.80913">
        <ele>374.384</ele>
        <time>2012-05-19T12:20:31Z</time>
      </trkpt>
      <trkpt lat="45.87033" lon="4.80903">
        <ele>373.835</ele>
        <time>2012-05-19T12:20:36Z</time>
      </trkpt>
      <trkpt lat="45.87037" lon="4.80891">
        <ele>372.99</ele>
        <time>2012-05-19T12:20:41Z</time>
      </trkpt>
      <trkpt lat="45.87046" lon="4.80873">
        <ele>373.534</ele>
        <time>2012-05-19T12:20:50Z</time>
      </trkpt>
      <trkpt lat="45.87055" lon="4.80853">
        <ele>375.462</ele>
        <time>2012-05-19T12:21:00Z</time>
      </trkpt>
      <trkpt lat="45.87062" lon="4.80842">
        <ele>376.024</ele>
        <time>2012-05-19T12:21:10Z</time>
      </trkpt>
      <trkpt lat="45.87064" lon="4.80842">
        <ele>376.281</ele>
        <time>2012-05-19T12:21:11Z</time>
      </trkpt>
      <trkpt lat="45.87087" lon="4.80838">
        <ele>375.915</ele>
        <time>2012-05-19T12:21:20Z</time>
      </trkpt>
      <trkpt lat="45.87086" lon="4.80802">
        <ele>374.015</ele>
        <time>2012-05-19T12:21:25Z</time>
      </trkpt>
      <trkpt lat="45.87086" lon="4.80783">
        <ele>371.215</ele>
        <time>2012-05-19T12:21:29Z</time>
      </trkpt>
      <trkpt lat="45.87086" lon="4.80773">
        <ele>369.777</ele>
        <time>2012-05-19T12:21:31Z</time>
      </trkpt>
      <trkpt lat="45.87085" lon="4.80733">
        <ele>364.54</ele>
        <time>2012-05-19T12:21:36Z</time>
      </trkpt>
      <trkpt lat="45.87088" lon="4.80712">
        <ele>360.578</ele>
        <time>2012-05-19T12:21:41Z</time>
      </trkpt>
      <trkpt lat="45.87096" lon="4.80697">
        <ele>356.773</ele>
        <time>2012-05-19T12:21:53Z</time>
      </trkpt>
      <trkpt lat="45.87096" lon="4.80697">
        <ele>357.375</ele>
        <time>2012-05-19T12:23:02Z</time>
      </trkpt>
      <trkpt lat="45.87093" lon="4.80687">
        <ele>357.968</ele>
        <time>2012-05-19T12:23:05Z</time>
      </trkpt>
      <trkpt lat="45.87071" lon="4.80662">
        <ele>359.928</ele>
        <time>2012-05-19T12:23:14Z</time>
      </trkpt>
      <trkpt lat="45.87055" lon="4.80637">
        <ele>361.868</ele>
        <time>2012-05-19T12:23:24Z</time>
      </trkpt>
      <trkpt lat="45.87052" lon="4.80624">
        <ele>360.885</ele>
        <time>2012-05-19T12:23:28Z</time>
      </trkpt>
      <trkpt lat="45.8705" lon="4.8061">
        <ele>361.794</ele>
        <time>2012-05-19T12:23:32Z</time>
      </trkpt>
      <trkpt lat="45.87053" lon="4.8057">
        <ele>365.14</ele>
        <time>2012-05-19T12:23:40Z</time>
      </trkpt>
      <trkpt lat="45.8705" lon="4.80555">
        <ele>366.661</ele>
        <time>2012-05-19T12:23:44Z</time>
      </trkpt>
      <trkpt lat="45.87053" lon="4.80545">
        <ele>367.064</ele>
        <time>2012-05-19T12:23:47Z</time>
      </trkpt>
      <trkpt lat="45.87055" lon="4.80523">
        <ele>367.846</ele>
        <time>2012-05-19T12:23:52Z</time>
      </trkpt>
      <trkpt lat="45.87057" lon="4.80518">
        <ele>368.372</ele>
        <time>2012-05-19T12:23:54Z</time>
      </trkpt>
      <trkpt lat="45.87054" lon="4.80489">
        <ele>371.828</ele>
        <time>2012-05-19T12:24:02Z</time>
      </trkpt>
      <trkpt lat="45.87054" lon="4.80485">
        <ele>373.939</ele>
        <time>2012-05-19T12:24:16Z</time>
      </trkpt>
      <trkpt lat="45.87056" lon="4.80481">
        <ele>374.199</ele>
        <time>2012-05-19T12:24:18Z</time>
      </trkpt>
      <trkpt lat="45.87058" lon="4.80439">
        <ele>372.601</ele>
        <time>2012-05-19T12:24:27Z</time>
      </trkpt>
      <trkpt lat="45.87099" lon="4.80393">
        <ele>367.914</ele>
        <time>2012-05-19T12:24:34Z</time>
      </trkpt>
      <trkpt lat="45.87127" lon="4.80374">
        <ele>362.798</ele>
        <time>2012-05-19T12:24:39Z</time>
      </trkpt>
      <trkpt lat="45.87151" lon="4.80367">
        <ele>359.536</ele>
        <time>2012-05-19T12:24:42Z</time>
      </trkpt>
      <trkpt lat="45.87173" lon="4.80363">
        <ele>356.12</ele>
        <time>2012-05-19T12:24:46Z</time>
      </trkpt>
      <trkpt lat="45.87184" lon="4.80359">
        <ele>347.424</ele>
        <time>2012-05-19T12:24:50Z</time>
      </trkpt>
      <trkpt lat="45.87187" lon="4.80328">
        <ele>341.191</ele>
        <time>2012-05-19T12:25:01Z</time>
      </trkpt>
      <trkpt lat="45.87199" lon="4.8028">
        <ele>339.565</ele>
        <time>2012-05-19T12:25:13Z</time>
      </trkpt>
      <trkpt lat="45.87212" lon="4.80233">
        <ele>339.372</ele>
        <time>2012-05-19T12:25:24Z</time>
      </trkpt>
      <trkpt lat="45.87215" lon="4.80217">
        <ele>339.943</ele>
        <time>2012-05-19T12:25:33Z</time>
      </trkpt>
      <trkpt lat="45.87215" lon="4.802">
        <ele>340.839</ele>
        <time>2012-05-19T12:26:17Z</time>
      </trkpt>
      <trkpt lat="45.87223" lon="4.80203">
        <ele>341.583</ele>
        <time>2012-05-19T12:26:21Z</time>
      </trkpt>
      <trkpt lat="45.8725" lon="4.8022">
        <ele>336.545</ele>
        <time>2012-05-19T12:26:29Z</time>
      </trkpt>
      <trkpt lat="45.87265" lon="4.80233">
        <ele>335.27</ele>
        <time>2012-05-19T12:26:34Z</time>
      </trkpt>
      <trkpt lat="45.87285" lon="4.80214">
        <ele>330.973</ele>
        <time>2012-05-19T12:26:40Z</time>
      </trkpt>
      <trkpt lat="45.87292" lon="4.80204">
        <ele>329.51</ele>
        <time>2012-05-19T12:26:42Z</time>
      </trkpt>
      <trkpt lat="45.87304" lon="4.80179">
        <ele>325.529</ele>
        <time>2012-05-19T12:26:50Z</time>
      </trkpt>
      <trkpt lat="45.87306" lon="4.80175">
        <ele>326.32</ele>
        <time>2012-05-19T12:26:52Z</time>
      </trkpt>
      <trkpt lat="45.87308" lon="4.80148">
        <ele>328.995</ele>
        <time>2012-05-19T12:27:04Z</time>
      </trkpt>
      <trkpt lat="45.8731" lon="4.80128">
        <ele>331.217</ele>
        <time>2012-05-19T12:27:15Z</time>
      </trkpt>
      <trkpt lat="45.8731" lon="4.80116">
        <ele>333.059</ele>
        <time>2012-05-19T12:27:21Z</time>
      </trkpt>
      <trkpt lat="45.87313" lon="4.80092">
        <ele>335.12</ele>
        <time>2012-05-19T12:27:35Z</time>
      </trkpt>
      <trkpt lat="45.87315" lon="4.80091">
        <ele>335.385</ele>
        <time>2012-05-19T12:27:37Z</time>
      </trkpt>
      <trkpt lat="45.8732" lon="4.80087">
        <ele>335.962</ele>
        <time>2012-05-19T12:27:47Z</time>
      </trkpt>
      <trkpt lat="45.87319" lon="4.8008">
        <ele>336.32</ele>
        <time>2012-05-19T12:28:03Z</time>
      </trkpt>
      <trkpt lat="45.87322" lon="4.80067">
        <ele>336.995</ele>
        <time>2012-05-19T12:28:18Z</time>
      </trkpt>
      <trkpt lat="45.87331" lon="4.80058">
        <ele>338.185</ele>
        <time>2012-05-19T12:28:31Z</time>
      </trkpt>
      <trkpt lat="45.87334" lon="4.80045">
        <ele>340.106</ele>
        <time>2012-05-19T12:28:41Z</time>
      </trkpt>
      <trkpt lat="45.87336" lon="4.80043">
        <ele>340.745</ele>
        <time>2012-05-19T12:28:43Z</time>
      </trkpt>
      <trkpt lat="45.87339" lon="4.80038">
        <ele>342.088</ele>
        <time>2012-05-19T12:28:56Z</time>
      </trkpt>
      <trkpt lat="45.87341" lon="4.80032">
        <ele>343.469</ele>
        <time>2012-05-19T12:29:08Z</time>
      </trkpt>
      <trkpt lat="45.87358" lon="4.80021">
        <ele>344.174</ele>
        <time>2012-05-19T12:29:17Z</time>
      </trkpt>
      <trkpt lat="45.87387" lon="4.79999">
        <ele>341.174</ele>
        <time>2012-05-19T12:29:26Z</time>
      </trkpt>
      <trkpt lat="45.8739" lon="4.79999">
        <ele>340.608</ele>
        <time>2012-05-19T12:29:27Z</time>
      </trkpt>
      <trkpt lat="45.8742" lon="4.79992">
        <ele>337.08</ele>
        <time>2012-05-19T12:29:33Z</time>
      </trkpt>
      <trkpt lat="45.87438" lon="4.79989">
        <ele>335.231</ele>
        <time>2012-05-19T12:29:37Z</time>
      </trkpt>
      <trkpt lat="45.87452" lon="4.79981">
        <ele>333.666</ele>
        <time>2012-05-19T12:29:43Z</time>
      </trkpt>
      <trkpt lat="45.87451" lon="4.79967">
        <ele>334.286</ele>
        <time>2012-05-19T12:29:50Z</time>
      </trkpt>
      <trkpt lat="45.87443" lon="4.7995">
        <ele>336.306</ele>
        <time>2012-05-19T12:30:01Z</time>
      </trkpt>
      <trkpt lat="45.87436" lon="4.79936">
        <ele>337.927</ele>
        <time>2012-05-19T12:30:11Z</time>
      </trkpt>
      <trkpt lat="45.87427" lon="4.79924">
        <ele>339.878</ele>
        <time>2012-05-19T12:30:21Z</time>
      </trkpt>
      <trkpt lat="45.87421" lon="4.79915">
        <ele>341.234</ele>
        <time>2012-05-19T12:30:29Z</time>
      </trkpt>
      <trkpt lat="45.87415" lon="4.79904">
        <ele>341.52</ele>
        <time>2012-05-19T12:30:36Z</time>
      </trkpt>
      <trkpt lat="45.87399" lon="4.79884">
        <ele>344.186</ele>
        <time>2012-05-19T12:30:48Z</time>
      </trkpt>
      <trkpt lat="45.87384" lon="4.79873">
        <ele>345.557</ele>
        <time>2012-05-19T12:30:59Z</time>
      </trkpt>
      <trkpt lat="45.87381" lon="4.79873">
        <ele>345.261</ele>
        <time>2012-05-19T12:31:01Z</time>
      </trkpt>
      <trkpt lat="45.87371" lon="4.79867">
        <ele>346.299</ele>
        <time>2012-05-19T12:31:09Z</time>
      </trkpt>
      <trkpt lat="45.8735" lon="4.79863">
        <ele>347.404</ele>
        <time>2012-05-19T12:31:24Z</time>
      </trkpt>
      <trkpt lat="45.87348" lon="4.79862">
        <ele>347.89</ele>
        <time>2012-05-19T12:31:26Z</time>
      </trkpt>
      <trkpt lat="45.87344" lon="4.79862">
        <ele>348.497</ele>
        <time>2012-05-19T12:31:30Z</time>
      </trkpt>
      <trkpt lat="45.87339" lon="4.7986">
        <ele>349.632</ele>
        <time>2012-05-19T12:31:34Z</time>
      </trkpt>
      <trkpt lat="45.8733" lon="4.79858">
        <ele>352.307</ele>
        <time>2012-05-19T12:31:41Z</time>
      </trkpt>
      <trkpt lat="45.87312" lon="4.79861">
        <ele>354.917</ele>
        <time>2012-05-19T12:31:54Z</time>
      </trkpt>
      <trkpt lat="45.87297" lon="4.79858">
        <ele>356.597</ele>
        <time>2012-05-19T12:32:06Z</time>
      </trkpt>
      <trkpt lat="45.87293" lon="4.79859">
        <ele>357.564</ele>
        <time>2012-05-19T12:32:10Z</time>
      </trkpt>
      <trkpt lat="45.87278" lon="4.79855">
        <ele>361.38</ele>
        <time>2012-05-19T12:32:22Z</time>
      </trkpt>
      <trkpt lat="45.87266" lon="4.79854">
        <ele>363.442</ele>
        <time>2012-05-19T12:32:33Z</time>
      </trkpt>
      <trkpt lat="45.8725" lon="4.7985">
        <ele>364.195</ele>
        <time>2012-05-19T12:32:45Z</time>
      </trkpt>
      <trkpt lat="45.87243" lon="4.79844">
        <ele>365.873</ele>
        <time>2012-05-19T12:32:53Z</time>
      </trkpt>
      <trkpt lat="45.87235" lon="4.79835">
        <ele>366.554</ele>
        <time>2012-05-19T12:33:02Z</time>
      </trkpt>
      <trkpt lat="45.87231" lon="4.79831">
        <ele>366.943</ele>
        <time>2012-05-19T12:33:05Z</time>
      </trkpt>
      <trkpt lat="45.87218" lon="4.7982">
        <ele>369.982</ele>
        <time>2012-05-19T12:33:17Z</time>
      </trkpt>
      <trkpt lat="45.87204" lon="4.79808">
        <ele>370.844</ele>
        <time>2012-05-19T12:33:28Z</time>
      </trkpt>
      <trkpt lat="45.87197" lon="4.79802">
        <ele>372.661</ele>
        <time>2012-05-19T12:33:37Z</time>
      </trkpt>
      <trkpt lat="45.87186" lon="4.79793">
        <ele>373.991</ele>
        <time>2012-05-19T12:33:47Z</time>
      </trkpt>
      <trkpt lat="45.87177" lon="4.79788">
        <ele>375.175</ele>
        <time>2012-05-19T12:33:55Z</time>
      </trkpt>
      <trkpt lat="45.87174" lon="4.79787">
        <ele>376.515</ele>
        <time>2012-05-19T12:33:57Z</time>
      </trkpt>
      <trkpt lat="45.8717" lon="4.79784">
        <ele>376.497</ele>
        <time>2012-05-19T12:34:01Z</time>
      </trkpt>
      <trkpt lat="45.87156" lon="4.79775">
        <ele>379.423</ele>
        <time>2012-05-19T12:34:14Z</time>
      </trkpt>
      <trkpt lat="45.8714" lon="4.79766">
        <ele>381.512</ele>
        <time>2012-05-19T12:34:26Z</time>
      </trkpt>
      <trkpt lat="45.8713" lon="4.79763">
        <ele>383.154</ele>
        <time>2012-05-19T12:34:36Z</time>
      </trkpt>
      <trkpt lat="45.87115" lon="4.79755">
        <ele>384.28</ele>
        <time>2012-05-19T12:34:47Z</time>
      </trkpt>
      <trkpt lat="45.87106" lon="4.79746">
        <ele>385.95</ele>
        <time>2012-05-19T12:34:59Z</time>
      </trkpt>
      <trkpt lat="45.87103" lon="4.79741">
        <ele>384.763</ele>
        <time>2012-05-19T12:35:03Z</time>
      </trkpt>
      <trkpt lat="45.87098" lon="4.79737">
        <ele>385.001</ele>
        <time>2012-05-19T12:35:08Z</time>
      </trkpt>
      <trkpt lat="45.87092" lon="4.79733">
        <ele>385.871</ele>
        <time>2012-05-19T12:35:14Z</time>
      </trkpt>
      <trkpt lat="45.8709" lon="4.79729">
        <ele>386.496</ele>
        <time>2012-05-19T12:35:18Z</time>
      </trkpt>
      <trkpt lat="45.87085" lon="4.79726">
        <ele>387.443</ele>
        <time>2012-05-19T12:35:22Z</time>
      </trkpt>
      <trkpt lat="45.87069" lon="4.79716">
        <ele>390.67</ele>
        <time>2012-05-19T12:35:36Z</time>
      </trkpt>
      <trkpt lat="45.8706" lon="4.79708">
        <ele>392.048</ele>
        <time>2012-05-19T12:35:46Z</time>
      </trkpt>
      <trkpt lat="45.87047" lon="4.79699">
        <ele>396.714</ele>
        <time>2012-05-19T12:35:56Z</time>
      </trkpt>
      <trkpt lat="45.8704" lon="4.79693">
        <ele>396.981</ele>
        <time>2012-05-19T12:36:03Z</time>
      </trkpt>
      <trkpt lat="45.87036" lon="4.79689">
        <ele>396.424</ele>
        <time>2012-05-19T12:36:08Z</time>
      </trkpt>
      <trkpt lat="45.87028" lon="4.79681">
        <ele>398.4</ele>
        <time>2012-05-19T12:36:15Z</time>
      </trkpt>
      <trkpt lat="45.87022" lon="4.79672">
        <ele>399.122</ele>
        <time>2012-05-19T12:36:21Z</time>
      </trkpt>
      <trkpt lat="45.87018" lon="4.79666">
        <ele>398.778</ele>
        <time>2012-05-19T12:36:24Z</time>
      </trkpt>
      <trkpt lat="45.87013" lon="4.79658">
        <ele>399.358</ele>
        <time>2012-05-19T12:36:30Z</time>
      </trkpt>
      <trkpt lat="45.87003" lon="4.79644">
        <ele>402.254</ele>
        <time>2012-05-19T12:36:41Z</time>
      </trkpt>
      <trkpt lat="45.87004" lon="4.79643">
        <ele>402.548</ele>
        <time>2012-05-19T12:39:08Z</time>
      </trkpt>
      <trkpt lat="45.87021" lon="4.79673">
        <ele>398.204</ele>
        <time>2012-05-19T12:39:19Z</time>
      </trkpt>
      <trkpt lat="45.87032" lon="4.79688">
        <ele>396.17</ele>
        <time>2012-05-19T12:39:23Z</time>
      </trkpt>
      <trkpt lat="45.87039" lon="4.79676">
        <ele>395.148</ele>
        <time>2012-05-19T12:39:29Z</time>
      </trkpt>
      <trkpt lat="45.87004" lon="4.79641">
        <ele>394.334</ele>
        <time>2012-05-19T12:39:35Z</time>
      </trkpt>
      <trkpt lat="45.87004" lon="4.79641">
        <ele>394.538</ele>
        <time>2012-05-19T12:39:56Z</time>
      </trkpt>
      <trkpt lat="45.87004" lon="4.79641">
        <ele>395.093</ele>
        <time>2012-05-19T12:40:08Z</time>
      </trkpt>
      <trkpt lat="45.87004" lon="4.79641">
        <ele>396.154</ele>
        <time>2012-05-19T12:40:36Z</time>
      </trkpt>
      <trkpt lat="45.87004" lon="4.79641">
        <ele>396.133</ele>
        <time>2012-05-19T12:40:37Z</time>
      </trkpt>
      <trkpt lat="45.87042" lon="4.79693">
        <ele>397.284</ele>
        <time>2012-05-19T12:40:45Z</time>
      </trkpt>
      <trkpt lat="45.87049" lon="4.79699">
        <ele>396.508</ele>
        <time>2012-05-19T12:40:48Z</time>
      </trkpt>
      <trkpt lat="45.87057" lon="4.79705">
        <ele>396.019</ele>
        <time>2012-05-19T12:40:50Z</time>
      </trkpt>
      <trkpt lat="45.8707" lon="4.79713">
        <ele>392.607</ele>
        <time>2012-05-19T12:40:59Z</time>
      </trkpt>
      <trkpt lat="45.87082" lon="4.79722">
        <ele>391.441</ele>
        <time>2012-05-19T12:41:04Z</time>
      </trkpt>
      <trkpt lat="45.87091" lon="4.79729">
        <ele>390.642</ele>
        <time>2012-05-19T12:41:08Z</time>
      </trkpt>
      <trkpt lat="45.87099" lon="4.79736">
        <ele>388.807</ele>
        <time>2012-05-19T12:41:12Z</time>
      </trkpt>
      <trkpt lat="45.87126" lon="4.79682">
        <ele>387.135</ele>
        <time>2012-05-19T12:41:17Z</time>
      </trkpt>
      <trkpt lat="45.87132" lon="4.79668">
        <ele>383.875</ele>
        <time>2012-05-19T12:41:27Z</time>
      </trkpt>
      <trkpt lat="45.87137" lon="4.79665">
        <ele>383.096</ele>
        <time>2012-05-19T12:41:41Z</time>
      </trkpt>
      <trkpt lat="45.87138" lon="4.79656">
        <ele>382.39</ele>
        <time>2012-05-19T12:41:45Z</time>
      </trkpt>
      <trkpt lat="45.87147" lon="4.79632">
        <ele>382.075</ele>
        <time>2012-05-19T12:41:54Z</time>
      </trkpt>
      <trkpt lat="45.87149" lon="4.79631">
        <ele>381.947</ele>
        <time>2012-05-19T12:41:55Z</time>
      </trkpt>
      <trkpt lat="45.872" lon="4.7964">
        <ele>372.136</ele>
        <time>2012-05-19T12:42:03Z</time>
      </trkpt>
      <trkpt lat="45.87249" lon="4.79645">
        <ele>360.951</ele>
        <time>2012-05-19T12:42:11Z</time>
      </trkpt>
      <trkpt lat="45.8725" lon="4.79651">
        <ele>356.662</ele>
        <time>2012-05-19T12:42:16Z</time>
      </trkpt>
      <trkpt lat="45.87251" lon="4.79654">
        <ele>354.587</ele>
        <time>2012-05-19T12:42:21Z</time>
      </trkpt>
      <trkpt lat="45.87252" lon="4.7965">
        <ele>352.072</ele>
        <time>2012-05-19T12:42:29Z</time>
      </trkpt>
      <trkpt lat="45.87251" lon="4.7965">
        <ele>352.227</ele>
        <time>2012-05-19T12:43:45Z</time>
      </trkpt>
      <trkpt lat="45.87253" lon="4.79665">
        <ele>350.291</ele>
        <time>2012-05-19T12:43:50Z</time>
      </trkpt>
      <trkpt lat="45.87265" lon="4.79707">
        <ele>350.471</ele>
        <time>2012-05-19T12:44:01Z</time>
      </trkpt>
      <trkpt lat="45.87273" lon="4.79734">
        <ele>352.039</ele>
        <time>2012-05-19T12:44:11Z</time>
      </trkpt>
      <trkpt lat="45.87273" lon="4.79731">
        <ele>351.534</ele>
        <time>2012-05-19T12:44:21Z</time>
      </trkpt>
      <trkpt lat="45.87271" lon="4.79721">
        <ele>351.252</ele>
        <time>2012-05-19T12:44:25Z</time>
      </trkpt>
      <trkpt lat="45.87254" lon="4.7967">
        <ele>349.001</ele>
        <time>2012-05-19T12:44:36Z</time>
      </trkpt>
      <trkpt lat="45.87248" lon="4.79632">
        <ele>347.472</ele>
        <time>2012-05-19T12:44:44Z</time>
      </trkpt>
      <trkpt lat="45.87244" lon="4.79625">
        <ele>348.94</ele>
        <time>2012-05-19T12:44:52Z</time>
      </trkpt>
      <trkpt lat="45.87244" lon="4.79624">
        <ele>349.327</ele>
        <time>2012-05-19T12:45:17Z</time>
      </trkpt>
      <trkpt lat="45.87243" lon="4.79586">
        <ele>351.58</ele>
        <time>2012-05-19T12:45:29Z</time>
      </trkpt>
      <trkpt lat="45.87242" lon="4.79567">
        <ele>351.067</ele>
        <time>2012-05-19T12:45:35Z</time>
      </trkpt>
      <trkpt lat="45.87244" lon="4.79537">
        <ele>351.762</ele>
        <time>2012-05-19T12:45:45Z</time>
      </trkpt>
      <trkpt lat="45.87242" lon="4.79522">
        <ele>356.332</ele>
        <time>2012-05-19T12:45:54Z</time>
      </trkpt>
      <trkpt lat="45.87241" lon="4.795">
        <ele>356.943</ele>
        <time>2012-05-19T12:46:16Z</time>
      </trkpt>
      <trkpt lat="45.87244" lon="4.79467">
        <ele>356.553</ele>
        <time>2012-05-19T12:46:27Z</time>
      </trkpt>
      <trkpt lat="45.87237" lon="4.79426">
        <ele>354.501</ele>
        <time>2012-05-19T12:46:36Z</time>
      </trkpt>
      <trkpt lat="45.87234" lon="4.79392">
        <ele>351.214</ele>
        <time>2012-05-19T12:46:40Z</time>
      </trkpt>
      <trkpt lat="45.87231" lon="4.79358">
        <ele>349.025</ele>
        <time>2012-05-19T12:46:44Z</time>
      </trkpt>
      <trkpt lat="45.8723" lon="4.79347">
        <ele>348.345</ele>
        <time>2012-05-19T12:46:50Z</time>
      </trkpt>
      <trkpt lat="45.8723" lon="4.79347">
        <ele>348.015</ele>
        <time>2012-05-19T12:46:51Z</time>
      </trkpt>
      <trkpt lat="45.87239" lon="4.79339">
        <ele>346.791</ele>
        <time>2012-05-19T12:46:56Z</time>
      </trkpt>
      <trkpt lat="45.87251" lon="4.79337">
        <ele>344.469</ele>
        <time>2012-05-19T12:46:59Z</time>
      </trkpt>
      <trkpt lat="45.87267" lon="4.79336">
        <ele>344.393</ele>
        <time>2012-05-19T12:47:02Z</time>
      </trkpt>
      <trkpt lat="45.87301" lon="4.79334">
        <ele>340.648</ele>
        <time>2012-05-19T12:47:09Z</time>
      </trkpt>
      <trkpt lat="45.87328" lon="4.79345">
        <ele>337.429</ele>
        <time>2012-05-19T12:47:15Z</time>
      </trkpt>
      <trkpt lat="45.87333" lon="4.79347">
        <ele>337.219</ele>
        <time>2012-05-19T12:47:16Z</time>
      </trkpt>
      <trkpt lat="45.87358" lon="4.79363">
        <ele>336.146</ele>
        <time>2012-05-19T12:47:20Z</time>
      </trkpt>
      <trkpt lat="45.87393" lon="4.79397">
        <ele>334.172</ele>
        <time>2012-05-19T12:47:25Z</time>
      </trkpt>
      <trkpt lat="45.87423" lon="4.79447">
        <ele>331.706</ele>
        <time>2012-05-19T12:47:31Z</time>
      </trkpt>
      <trkpt lat="45.8745" lon="4.7949">
        <ele>327.82</ele>
        <time>2012-05-19T12:47:37Z</time>
      </trkpt>
      <trkpt lat="45.87453" lon="4.79527">
        <ele>324.327</ele>
        <time>2012-05-19T12:47:42Z</time>
      </trkpt>
      <trkpt lat="45.87457" lon="4.79542">
        <ele>322.273</ele>
        <time>2012-05-19T12:47:45Z</time>
      </trkpt>
      <trkpt lat="45.8747" lon="4.79566">
        <ele>319.161</ele>
        <time>2012-05-19T12:47:49Z</time>
      </trkpt>
      <trkpt lat="45.87508" lon="4.796">
        <ele>312.493</ele>
        <time>2012-05-19T12:47:55Z</time>
      </trkpt>
      <trkpt lat="45.87534" lon="4.79638">
        <ele>309.45</ele>
        <time>2012-05-19T12:47:59Z</time>
      </trkpt>
      <trkpt lat="45.87539" lon="4.79643">
        <ele>308.198</ele>
        <time>2012-05-19T12:48:01Z</time>
      </trkpt>
      <trkpt lat="45.87609" lon="4.79658">
        <ele>302.009</ele>
        <time>2012-05-19T12:48:09Z</time>
      </trkpt>
      <trkpt lat="45.87614" lon="4.79658">
        <ele>301.291</ele>
        <time>2012-05-19T12:48:10Z</time>
      </trkpt>
      <trkpt lat="45.87639" lon="4.79652">
        <ele>299.04</ele>
        <time>2012-05-19T12:48:15Z</time>
      </trkpt>
      <trkpt lat="45.87697" lon="4.79627">
        <ele>294.626</ele>
        <time>2012-05-19T12:48:21Z</time>
      </trkpt>
      <trkpt lat="45.87712" lon="4.79618">
        <ele>288.988</ele>
        <time>2012-05-19T12:48:24Z</time>
      </trkpt>
      <trkpt lat="45.87717" lon="4.79615">
        <ele>283.709</ele>
        <time>2012-05-19T12:48:30Z</time>
      </trkpt>
      <trkpt lat="45.87717" lon="4.79615">
        <ele>279.198</ele>
        <time>2012-05-19T12:48:40Z</time>
      </trkpt>
      <trkpt lat="45.87717" lon="4.79615">
        <ele>278.371</ele>
        <time>2012-05-19T12:48:46Z</time>
      </trkpt>
      <trkpt lat="45.87707" lon="4.79595">
        <ele>277.178</ele>
        <time>2012-05-19T12:48:51Z</time>
      </trkpt>
      <trkpt lat="45.87703" lon="4.7959">
        <ele>275.262</ele>
        <time>2012-05-19T12:49:00Z</time>
      </trkpt>
      <trkpt lat="45.87691" lon="4.79573">
        <ele>273.366</ele>
        <time>2012-05-19T12:49:17Z</time>
      </trkpt>
      <trkpt lat="45.87673" lon="4.79545">
        <ele>272.89</ele>
        <time>2012-05-19T12:49:31Z</time>
      </trkpt>
      <trkpt lat="45.87669" lon="4.79537">
        <ele>273.842</ele>
        <time>2012-05-19T12:49:38Z</time>
      </trkpt>
      <trkpt lat="45.87669" lon="4.79537">
        <ele>274.048</ele>
        <time>2012-05-19T12:49:41Z</time>
      </trkpt>
      <trkpt lat="45.87669" lon="4.79537">
        <ele>274.881</ele>
        <time>2012-05-19T12:49:49Z</time>
      </trkpt>
      <trkpt lat="45.87669" lon="4.79537">
        <ele>275.734</ele>
        <time>2012-05-19T12:50:00Z</time>
      </trkpt>
      <trkpt lat="45.87656" lon="4.79501">
        <ele>277.794</ele>
        <time>2012-05-19T12:50:29Z</time>
      </trkpt>
      <trkpt lat="45.87656" lon="4.79501">
        <ele>279.383</ele>
        <time>2012-05-19T12:50:47Z</time>
      </trkpt>
      <trkpt lat="45.8765" lon="4.7948">
        <ele>279.384</ele>
        <time>2012-05-19T12:50:57Z</time>
      </trkpt>
      <trkpt lat="45.8765" lon="4.7948">
        <ele>280.343</ele>
        <time>2012-05-19T12:51:18Z</time>
      </trkpt>
      <trkpt lat="45.8765" lon="4.7948">
        <ele>280.544</ele>
        <time>2012-05-19T12:51:34Z</time>
      </trkpt>
      <trkpt lat="45.8765" lon="4.7948">
        <ele>282.473</ele>
        <time>2012-05-19T12:51:46Z</time>
      </trkpt>
      <trkpt lat="45.8765" lon="4.7948">
        <ele>285.339</ele>
        <time>2012-05-19T12:52:02Z</time>
      </trkpt>
      <trkpt lat="45.8765" lon="4.7948">
        <ele>285.925</ele>
        <time>2012-05-19T12:52:18Z</time>
      </trkpt>
      <trkpt lat="45.8765" lon="4.7948">
        <ele>286.977</ele>
        <time>2012-05-19T12:52:35Z</time>
      </trkpt>
      <trkpt lat="45.8765" lon="4.7948">
        <ele>288.007</ele>
        <time>2012-05-19T12:52:49Z</time>
      </trkpt>
      <trkpt lat="45.8765" lon="4.7948">
        <ele>289.911</ele>
        <time>2012-05-19T12:52:59Z</time>
      </trkpt>
      <trkpt lat="45.87584" lon="4.79451">
        <ele>290.357</ele>
        <time>2012-05-19T12:53:02Z</time>
      </trkpt>
      <trkpt lat="45.87584" lon="4.79441">
        <ele>290.495</ele>
        <time>2012-05-19T12:53:06Z</time>
      </trkpt>
      <trkpt lat="45.87584" lon="4.79414">
        <ele>289.579</ele>
        <time>2012-05-19T12:53:14Z</time>
      </trkpt>
      <trkpt lat="45.87578" lon="4.79386">
        <ele>288.401</ele>
        <time>2012-05-19T12:53:23Z</time>
      </trkpt>
      <trkpt lat="45.8756" lon="4.79344">
        <ele>286.34</ele>
        <time>2012-05-19T12:53:33Z</time>
      </trkpt>
      <trkpt lat="45.87541" lon="4.79301">
        <ele>285.65</ele>
        <time>2012-05-19T12:53:43Z</time>
      </trkpt>
      <trkpt lat="45.87526" lon="4.79274">
        <ele>286.433</ele>
        <time>2012-05-19T12:53:51Z</time>
      </trkpt>
      <trkpt lat="45.87508" lon="4.79229">
        <ele>284.313</ele>
        <time>2012-05-19T12:54:01Z</time>
      </trkpt>
      <trkpt lat="45.87501" lon="4.79214">
        <ele>283.375</ele>
        <time>2012-05-19T12:54:03Z</time>
      </trkpt>
      <trkpt lat="45.87478" lon="4.79185">
        <ele>283.194</ele>
        <time>2012-05-19T12:54:10Z</time>
      </trkpt>
      <trkpt lat="45.87455" lon="4.79169">
        <ele>289.77</ele>
        <time>2012-05-19T12:54:18Z</time>
      </trkpt>
      <trkpt lat="45.87433" lon="4.79165">
        <ele>293.697</ele>
        <time>2012-05-19T12:54:26Z</time>
      </trkpt>
      <trkpt lat="45.87418" lon="4.79164">
        <ele>298.984</ele>
        <time>2012-05-19T12:54:36Z</time>
      </trkpt>
      <trkpt lat="45.87404" lon="4.79162">
        <ele>299.71</ele>
        <time>2012-05-19T12:54:44Z</time>
      </trkpt>
      <trkpt lat="45.87385" lon="4.79159">
        <ele>299.311</ele>
        <time>2012-05-19T12:54:51Z</time>
      </trkpt>
      <trkpt lat="45.87382" lon="4.79158">
        <ele>298.68</ele>
        <time>2012-05-19T12:54:53Z</time>
      </trkpt>
      <trkpt lat="45.87373" lon="4.79155">
        <ele>298.444</ele>
        <time>2012-05-19T12:54:59Z</time>
      </trkpt>
      <trkpt lat="45.87373" lon="4.79155">
        <ele>298.215</ele>
        <time>2012-05-19T12:55:01Z</time>
      </trkpt>
      <trkpt lat="45.8735" lon="4.79139">
        <ele>297.635</ele>
        <time>2012-05-19T12:55:10Z</time>
      </trkpt>
      <trkpt lat="45.87347" lon="4.79135">
        <ele>297.154</ele>
        <time>2012-05-19T12:55:13Z</time>
      </trkpt>
      <trkpt lat="45.87347" lon="4.79135">
        <ele>296.913</ele>
        <time>2012-05-19T12:55:15Z</time>
      </trkpt>
      <trkpt lat="45.87337" lon="4.79124">
        <ele>297.807</ele>
        <time>2012-05-19T12:55:25Z</time>
      </trkpt>
      <trkpt lat="45.87308" lon="4.79106">
        <ele>298.581</ele>
        <time>2012-05-19T12:55:34Z</time>
      </trkpt>
      <trkpt lat="45.87308" lon="4.79106">
        <ele>298.147</ele>
        <time>2012-05-19T12:55:44Z</time>
      </trkpt>
      <trkpt lat="45.87294" lon="4.79073">
        <ele>298.028</ele>
        <time>2012-05-19T12:55:55Z</time>
      </trkpt>
      <trkpt lat="45.87294" lon="4.79073">
        <ele>298.308</ele>
        <time>2012-05-19T12:55:58Z</time>
      </trkpt>
      <trkpt lat="45.87276" lon="4.79059">
        <ele>298.093</ele>
        <time>2012-05-19T12:56:07Z</time>
      </trkpt>
      <trkpt lat="45.87273" lon="4.79058">
        <ele>298.222</ele>
        <time>2012-05-19T12:56:10Z</time>
      </trkpt>
      <trkpt lat="45.8726" lon="4.79054">
        <ele>299.095</ele>
        <time>2012-05-19T12:56:19Z</time>
      </trkpt>
      <trkpt lat="45.8725" lon="4.79048">
        <ele>300.403</ele>
        <time>2012-05-19T12:56:27Z</time>
      </trkpt>
      <trkpt lat="45.8725" lon="4.79048">
        <ele>300.589</ele>
        <time>2012-05-19T12:56:28Z</time>
      </trkpt>
      <trkpt lat="45.87236" lon="4.7904">
        <ele>301.432</ele>
        <time>2012-05-19T12:56:38Z</time>
      </trkpt>
      <trkpt lat="45.87223" lon="4.79032">
        <ele>302.119</ele>
        <time>2012-05-19T12:56:48Z</time>
      </trkpt>
      <trkpt lat="45.87211" lon="4.79024">
        <ele>303.216</ele>
        <time>2012-05-19T12:56:57Z</time>
      </trkpt>
      <trkpt lat="45.87207" lon="4.79022">
        <ele>305.245</ele>
        <time>2012-05-19T12:57:05Z</time>
      </trkpt>
      <trkpt lat="45.87202" lon="4.79018">
        <ele>306.664</ele>
        <time>2012-05-19T12:57:14Z</time>
      </trkpt>
      <trkpt lat="45.87202" lon="4.79018">
        <ele>306.751</ele>
        <time>2012-05-19T12:57:18Z</time>
      </trkpt>
      <trkpt lat="45.87189" lon="4.79013">
        <ele>308.29</ele>
        <time>2012-05-19T12:57:29Z</time>
      </trkpt>
      <trkpt lat="45.87189" lon="4.79013">
        <ele>309.689</ele>
        <time>2012-05-19T12:57:48Z</time>
      </trkpt>
      <trkpt lat="45.87189" lon="4.79013">
        <ele>309.865</ele>
        <time>2012-05-19T12:57:52Z</time>
      </trkpt>
      <trkpt lat="45.87146" lon="4.78981">
        <ele>310.564</ele>
        <time>2012-05-19T12:58:05Z</time>
      </trkpt>
      <trkpt lat="45.87146" lon="4.78981">
        <ele>310.513</ele>
        <time>2012-05-19T12:58:07Z</time>
      </trkpt>
      <trkpt lat="45.87146" lon="4.78965">
        <ele>310.253</ele>
        <time>2012-05-19T12:58:13Z</time>
      </trkpt>
      <trkpt lat="45.87146" lon="4.78965">
        <ele>310.461</ele>
        <time>2012-05-19T12:58:15Z</time>
      </trkpt>
      <trkpt lat="45.87146" lon="4.78965">
        <ele>311.047</ele>
        <time>2012-05-19T12:58:20Z</time>
      </trkpt>
      <trkpt lat="45.87146" lon="4.78965">
        <ele>314.089</ele>
        <time>2012-05-19T12:58:27Z</time>
      </trkpt>
      <trkpt lat="45.87159" lon="4.78923">
        <ele>320.48</ele>
        <time>2012-05-19T12:58:37Z</time>
      </trkpt>
      <trkpt lat="45.87172" lon="4.7889">
        <ele>326.709</ele>
        <time>2012-05-19T12:58:47Z</time>
      </trkpt>
      <trkpt lat="45.87172" lon="4.7889">
        <ele>327.406</ele>
        <time>2012-05-19T12:58:48Z</time>
      </trkpt>
      <trkpt lat="45.87172" lon="4.7889">
        <ele>331.432</ele>
        <time>2012-05-19T12:58:57Z</time>
      </trkpt>
      <trkpt lat="45.87172" lon="4.7889">
        <ele>331.207</ele>
        <time>2012-05-19T12:58:58Z</time>
      </trkpt>
      <trkpt lat="45.87172" lon="4.7889">
        <ele>334.543</ele>
        <time>2012-05-19T12:59:07Z</time>
      </trkpt>
      <trkpt lat="45.87172" lon="4.7889">
        <ele>334.703</ele>
        <time>2012-05-19T12:59:08Z</time>
      </trkpt>
      <trkpt lat="45.87205" lon="4.78875">
        <ele>335.958</ele>
        <time>2012-05-19T12:59:12Z</time>
      </trkpt>
      <trkpt lat="45.87224" lon="4.78871">
        <ele>336.74</ele>
        <time>2012-05-19T12:59:16Z</time>
      </trkpt>
      <trkpt lat="45.87234" lon="4.78868">
        <ele>336.921</ele>
        <time>2012-05-19T12:59:18Z</time>
      </trkpt>
      <trkpt lat="45.87283" lon="4.78868">
        <ele>326.534</ele>
        <time>2012-05-19T12:59:26Z</time>
      </trkpt>
      <trkpt lat="45.87306" lon="4.78873">
        <ele>320.708</ele>
        <time>2012-05-19T12:59:34Z</time>
      </trkpt>
      <trkpt lat="45.87334" lon="4.78873">
        <ele>317.961</ele>
        <time>2012-05-19T12:59:41Z</time>
      </trkpt>
      <trkpt lat="45.87341" lon="4.7887">
        <ele>317.089</ele>
        <time>2012-05-19T12:59:42Z</time>
      </trkpt>
      <trkpt lat="45.87373" lon="4.78853">
        <ele>312.033</ele>
        <time>2012-05-19T12:59:50Z</time>
      </trkpt>
      <trkpt lat="45.87383" lon="4.78835">
        <ele>306.245</ele>
        <time>2012-05-19T12:59:54Z</time>
      </trkpt>
      <trkpt lat="45.87379" lon="4.78807">
        <ele>302.864</ele>
        <time>2012-05-19T13:00:01Z</time>
      </trkpt>
      <trkpt lat="45.87391" lon="4.78787">
        <ele>299.749</ele>
        <time>2012-05-19T13:00:10Z</time>
      </trkpt>
      <trkpt lat="45.87391" lon="4.78787">
        <ele>299.184</ele>
        <time>2012-05-19T13:00:19Z</time>
      </trkpt>
      <trkpt lat="45.87391" lon="4.78787">
        <ele>299.931</ele>
        <time>2012-05-19T13:00:43Z</time>
      </trkpt>
      <trkpt lat="45.87391" lon="4.78787">
        <ele>300.564</ele>
        <time>2012-05-19T13:00:57Z</time>
      </trkpt>
      <trkpt lat="45.87454" lon="4.78765">
        <ele>298.423</ele>
        <time>2012-05-19T13:01:14Z</time>
      </trkpt>
      <trkpt lat="45.87454" lon="4.78765">
        <ele>295.597</ele>
        <time>2012-05-19T13:01:24Z</time>
      </trkpt>
      <trkpt lat="45.87454" lon="4.78765">
        <ele>294.058</ele>
        <time>2012-05-19T13:01:37Z</time>
      </trkpt>
      <trkpt lat="45.87454" lon="4.78765">
        <ele>293.273</ele>
        <time>2012-05-19T13:01:50Z</time>
      </trkpt>
      <trkpt lat="45.87454" lon="4.78765">
        <ele>293.515</ele>
        <time>2012-05-19T13:02:10Z</time>
      </trkpt>
      <trkpt lat="45.87454" lon="4.78765">
        <ele>292.792</ele>
        <time>2012-05-19T13:02:20Z</time>
      </trkpt>
      <trkpt lat="45.87454" lon="4.78765">
        <ele>291.052</ele>
        <time>2012-05-19T13:02:32Z</time>
      </trkpt>
      <trkpt lat="45.87454" lon="4.78765">
        <ele>290.578</ele>
        <time>2012-05-19T13:02:44Z</time>
      </trkpt>
      <trkpt lat="45.87454" lon="4.78765">
        <ele>289.57</ele>
        <time>2012-05-19T13:02:52Z</time>
      </trkpt>
      <trkpt lat="45.87431" lon="4.78668">
        <ele>287.357</ele>
        <time>2012-05-19T13:03:00Z</time>
      </trkpt>
      <trkpt lat="45.87413" lon="4.78656">
        <ele>285.281</ele>
        <time>2012-05-19T13:03:09Z</time>
      </trkpt>
      <trkpt lat="45.87404" lon="4.78649">
        <ele>283.901</ele>
        <time>2012-05-19T13:03:16Z</time>
      </trkpt>
      <trkpt lat="45.87386" lon="4.78634">
        <ele>282.79</ele>
        <time>2012-05-19T13:03:25Z</time>
      </trkpt>
      <trkpt lat="45.87384" lon="4.78632">
        <ele>281.569</ele>
        <time>2012-05-19T13:03:34Z</time>
      </trkpt>
      <trkpt lat="45.87364" lon="4.78616">
        <ele>280.43</ele>
        <time>2012-05-19T13:03:46Z</time>
      </trkpt>
      <trkpt lat="45.87364" lon="4.78616">
        <ele>279.338</ele>
        <time>2012-05-19T13:03:59Z</time>
      </trkpt>
      <trkpt lat="45.87324" lon="4.78584">
        <ele>277.733</ele>
        <time>2012-05-19T13:04:15Z</time>
      </trkpt>
      <trkpt lat="45.87308" lon="4.78572">
        <ele>277.1</ele>
        <time>2012-05-19T13:04:26Z</time>
      </trkpt>
      <trkpt lat="45.87289" lon="4.78557">
        <ele>277.412</ele>
        <time>2012-05-19T13:04:37Z</time>
      </trkpt>
      <trkpt lat="45.87283" lon="4.78552">
        <ele>277.925</ele>
        <time>2012-05-19T13:04:44Z</time>
      </trkpt>
      <trkpt lat="45.87255" lon="4.78539">
        <ele>278.209</ele>
        <time>2012-05-19T13:04:55Z</time>
      </trkpt>
      <trkpt lat="45.87238" lon="4.78531">
        <ele>277.995</ele>
        <time>2012-05-19T13:05:04Z</time>
      </trkpt>
      <trkpt lat="45.8722" lon="4.78522">
        <ele>277.468</ele>
        <time>2012-05-19T13:05:14Z</time>
      </trkpt>
      <trkpt lat="45.8722" lon="4.78522">
        <ele>279.274</ele>
        <time>2012-05-19T13:05:24Z</time>
      </trkpt>
      <trkpt lat="45.8722" lon="4.78522">
        <ele>281.289</ele>
        <time>2012-05-19T13:05:39Z</time>
      </trkpt>
      <trkpt lat="45.87172" lon="4.7851">
        <ele>283.727</ele>
        <time>2012-05-19T13:05:52Z</time>
      </trkpt>
      <trkpt lat="45.87145" lon="4.78503">
        <ele>286.208</ele>
        <time>2012-05-19T13:06:01Z</time>
      </trkpt>
      <trkpt lat="45.87131" lon="4.78498">
        <ele>288.735</ele>
        <time>2012-05-19T13:06:11Z</time>
      </trkpt>
      <trkpt lat="45.87113" lon="4.78484">
        <ele>289.71</ele>
        <time>2012-05-19T13:06:20Z</time>
      </trkpt>
      <trkpt lat="45.87098" lon="4.78464">
        <ele>290.093</ele>
        <time>2012-05-19T13:06:24Z</time>
      </trkpt>
      <trkpt lat="45.87069" lon="4.78429">
        <ele>288.576</ele>
        <time>2012-05-19T13:06:32Z</time>
      </trkpt>
      <trkpt lat="45.87067" lon="4.78427">
        <ele>286.959</ele>
        <time>2012-05-19T13:06:39Z</time>
      </trkpt>
      <trkpt lat="45.87042" lon="4.78433">
        <ele>288.813</ele>
        <time>2012-05-19T13:06:50Z</time>
      </trkpt>
      <trkpt lat="45.87042" lon="4.78433">
        <ele>290.047</ele>
        <time>2012-05-19T13:07:01Z</time>
      </trkpt>
      <trkpt lat="45.87042" lon="4.78433">
        <ele>290.518</ele>
        <time>2012-05-19T13:08:44Z</time>
      </trkpt>
      <trkpt lat="45.87042" lon="4.78433">
        <ele>292.042</ele>
        <time>2012-05-19T13:09:24Z</time>
      </trkpt>
      <trkpt lat="45.87042" lon="4.78433">
        <ele>292.397</ele>
        <time>2012-05-19T13:09:29Z</time>
      </trkpt>
      <trkpt lat="45.87042" lon="4.78433">
        <ele>293.514</ele>
        <time>2012-05-19T13:09:41Z</time>
      </trkpt>
      <trkpt lat="45.87042" lon="4.78433">
        <ele>295.376</ele>
        <time>2012-05-19T13:09:52Z</time>
      </trkpt>
      <trkpt lat="45.87042" lon="4.78433">
        <ele>297.897</ele>
        <time>2012-05-19T13:10:07Z</time>
      </trkpt>
      <trkpt lat="45.87042" lon="4.78433">
        <ele>300.329</ele>
        <time>2012-05-19T13:10:24Z</time>
      </trkpt>
      <trkpt lat="45.86963" lon="4.78496">
        <ele>301.878</ele>
        <time>2012-05-19T13:10:55Z</time>
      </trkpt>
      <trkpt lat="45.86963" lon="4.78496">
        <ele>302.579</ele>
        <time>2012-05-19T13:11:11Z</time>
      </trkpt>
      <trkpt lat="45.86963" lon="4.78496">
        <ele>304.383</ele>
        <time>2012-05-19T13:11:26Z</time>
      </trkpt>
      <trkpt lat="45.86963" lon="4.78496">
        <ele>305.504</ele>
        <time>2012-05-19T13:11:46Z</time>
      </trkpt>
      <trkpt lat="45.86963" lon="4.78496">
        <ele>308.041</ele>
        <time>2012-05-19T13:12:05Z</time>
      </trkpt>
      <trkpt lat="45.86963" lon="4.78496">
        <ele>309.875</ele>
        <time>2012-05-19T13:12:20Z</time>
      </trkpt>
      <trkpt lat="45.8688" lon="4.7855">
        <ele>311.202</ele>
        <time>2012-05-19T13:12:41Z</time>
      </trkpt>
      <trkpt lat="45.8688" lon="4.7855">
        <ele>312.239</ele>
        <time>2012-05-19T13:12:53Z</time>
      </trkpt>
      <trkpt lat="45.8688" lon="4.7855">
        <ele>312.743</ele>
        <time>2012-05-19T13:13:17Z</time>
      </trkpt>
      <trkpt lat="45.8688" lon="4.7855">
        <ele>314.358</ele>
        <time>2012-05-19T13:13:32Z</time>
      </trkpt>
      <trkpt lat="45.8688" lon="4.7855">
        <ele>315.616</ele>
        <time>2012-05-19T13:13:44Z</time>
      </trkpt>
      <trkpt lat="45.8688" lon="4.7855">
        <ele>316.919</ele>
        <time>2012-05-19T13:13:59Z</time>
      </trkpt>
      <trkpt lat="45.8688" lon="4.7855">
        <ele>317.578</ele>
        <time>2012-05-19T13:14:15Z</time>
      </trkpt>
      <trkpt lat="45.8688" lon="4.7855">
        <ele>318.728</ele>
        <time>2012-05-19T13:14:27Z</time>
      </trkpt>
      <trkpt lat="45.8688" lon="4.7855">
        <ele>319.81</ele>
        <time>2012-05-19T13:14:43Z</time>
      </trkpt>
      <trkpt lat="45.8688" lon="4.7855">
        <ele>321.24</ele>
        <time>2012-05-19T13:14:59Z</time>
      </trkpt>
      <trkpt lat="45.86799" lon="4.78608">
        <ele>323.025</ele>
        <time>2012-05-19T13:15:17Z</time>
      </trkpt>
      <trkpt lat="45.86799" lon="4.78608">
        <ele>324.475</ele>
        <time>2012-05-19T13:15:38Z</time>
      </trkpt>
      <trkpt lat="45.86799" lon="4.78608">
        <ele>325.035</ele>
        <time>2012-05-19T13:15:55Z</time>
      </trkpt>
      <trkpt lat="45.86799" lon="4.78608">
        <ele>324.941</ele>
        <time>2012-05-19T13:16:12Z</time>
      </trkpt>
      <trkpt lat="45.86799" lon="4.78608">
        <ele>325.644</ele>
        <time>2012-05-19T13:16:25Z</time>
      </trkpt>
      <trkpt lat="45.86799" lon="4.78608">
        <ele>327.042</ele>
        <time>2012-05-19T13:16:39Z</time>
      </trkpt>
      <trkpt lat="45.86799" lon="4.78608">
        <ele>328.743</ele>
        <time>2012-05-19T13:16:57Z</time>
      </trkpt>
      <trkpt lat="45.86799" lon="4.78608">
        <ele>331.222</ele>
        <time>2012-05-19T13:17:32Z</time>
      </trkpt>
      <trkpt lat="45.86799" lon="4.78608">
        <ele>333.145</ele>
        <time>2012-05-19T13:17:46Z</time>
      </trkpt>
      <trkpt lat="45.86799" lon="4.78608">
        <ele>335.512</ele>
        <time>2012-05-19T13:18:02Z</time>
      </trkpt>
      <trkpt lat="45.86799" lon="4.78608">
        <ele>338.395</ele>
        <time>2012-05-19T13:18:20Z</time>
      </trkpt>
      <trkpt lat="45.86799" lon="4.78608">
        <ele>341.872</ele>
        <time>2012-05-19T13:18:38Z</time>
      </trkpt>
      <trkpt lat="45.86799" lon="4.78608">
        <ele>344.01</ele>
        <time>2012-05-19T13:18:54Z</time>
      </trkpt>
      <trkpt lat="45.86799" lon="4.78608">
        <ele>347.839</ele>
        <time>2012-05-19T13:19:07Z</time>
      </trkpt>
      <trkpt lat="45.86799" lon="4.78608">
        <ele>351.212</ele>
        <time>2012-05-19T13:19:24Z</time>
      </trkpt>
      <trkpt lat="45.86799" lon="4.78608">
        <ele>353.812</ele>
        <time>2012-05-19T13:19:38Z</time>
      </trkpt>
      <trkpt lat="45.86799" lon="4.78608">
        <ele>356.787</ele>
        <time>2012-05-19T13:19:49Z</time>
      </trkpt>
      <trkpt lat="45.86799" lon="4.78608">
        <ele>358.186</ele>
        <time>2012-05-19T13:20:09Z</time>
      </trkpt>
      <trkpt lat="45.86799" lon="4.78608">
        <ele>358.885</ele>
        <time>2012-05-19T13:20:22Z</time>
      </trkpt>
      <trkpt lat="45.86877" lon="4.78669">
        <ele>360.903</ele>
        <time>2012-05-19T13:20:41Z</time>
      </trkpt>
      <trkpt lat="45.86877" lon="4.78669">
        <ele>361.674</ele>
        <time>2012-05-19T13:20:52Z</time>
      </trkpt>
      <trkpt lat="45.86877" lon="4.78669">
        <ele>362.491</ele>
        <time>2012-05-19T13:21:05Z</time>
      </trkpt>
      <trkpt lat="45.86877" lon="4.78669">
        <ele>361.572</ele>
        <time>2012-05-19T13:21:17Z</time>
      </trkpt>
      <trkpt lat="45.86877" lon="4.78669">
        <ele>362.363</ele>
        <time>2012-05-19T13:21:33Z</time>
      </trkpt>
      <trkpt lat="45.86877" lon="4.78669">
        <ele>363.513</ele>
        <time>2012-05-19T13:21:48Z</time>
      </trkpt>
      <trkpt lat="45.86877" lon="4.78669">
        <ele>363.807</ele>
        <time>2012-05-19T13:21:50Z</time>
      </trkpt>
      <trkpt lat="45.86933" lon="4.7869">
        <ele>364.346</ele>
        <time>2012-05-19T13:21:53Z</time>
      </trkpt>
      <trkpt lat="45.86954" lon="4.787">
        <ele>367.067</ele>
        <time>2012-05-19T13:22:06Z</time>
      </trkpt>
      <trkpt lat="45.86954" lon="4.787">
        <ele>365.266</ele>
        <time>2012-05-19T13:22:16Z</time>
      </trkpt>
      <trkpt lat="45.86971" lon="4.78711">
        <ele>366.435</ele>
        <time>2012-05-19T13:22:27Z</time>
      </trkpt>
      <trkpt lat="45.86971" lon="4.78711">
        <ele>371.461</ele>
        <time>2012-05-19T13:22:38Z</time>
      </trkpt>
      <trkpt lat="45.86971" lon="4.78711">
        <ele>372.292</ele>
        <time>2012-05-19T13:22:55Z</time>
      </trkpt>
      <trkpt lat="45.86971" lon="4.78711">
        <ele>373.601</ele>
        <time>2012-05-19T13:23:10Z</time>
      </trkpt>
      <trkpt lat="45.86952" lon="4.7875">
        <ele>374.221</ele>
        <time>2012-05-19T13:23:14Z</time>
      </trkpt>
      <trkpt lat="45.86946" lon="4.78751">
        <ele>374.394</ele>
        <time>2012-05-19T13:23:16Z</time>
      </trkpt>
      <trkpt lat="45.86944" lon="4.78752">
        <ele>375.821</ele>
        <time>2012-05-19T13:23:27Z</time>
      </trkpt>
      <trkpt lat="45.86944" lon="4.78752">
        <ele>375.978</ele>
        <time>2012-05-19T13:23:39Z</time>
      </trkpt>
      <trkpt lat="45.86944" lon="4.78752">
        <ele>375.9</ele>
        <time>2012-05-19T13:23:52Z</time>
      </trkpt>
      <trkpt lat="45.86944" lon="4.78752">
        <ele>376.457</ele>
        <time>2012-05-19T13:24:06Z</time>
      </trkpt>
      <trkpt lat="45.86944" lon="4.78752">
        <ele>379.377</ele>
        <time>2012-05-19T13:24:30Z</time>
      </trkpt>
      <trkpt lat="45.86889" lon="4.78776">
        <ele>380.342</ele>
        <time>2012-05-19T13:24:40Z</time>
      </trkpt>
      <trkpt lat="45.86865" lon="4.78794">
        <ele>382.947</ele>
        <time>2012-05-19T13:24:51Z</time>
      </trkpt>
      <trkpt lat="45.86865" lon="4.78794">
        <ele>381.788</ele>
        <time>2012-05-19T13:25:03Z</time>
      </trkpt>
      <trkpt lat="45.86843" lon="4.78805">
        <ele>384.635</ele>
        <time>2012-05-19T13:25:14Z</time>
      </trkpt>
      <trkpt lat="45.86843" lon="4.78805">
        <ele>385.173</ele>
        <time>2012-05-19T13:25:18Z</time>
      </trkpt>
      <trkpt lat="45.86826" lon="4.78813">
        <ele>387.501</ele>
        <time>2012-05-19T13:25:25Z</time>
      </trkpt>
      <trkpt lat="45.86813" lon="4.7882">
        <ele>389.944</ele>
        <time>2012-05-19T13:25:36Z</time>
      </trkpt>
      <trkpt lat="45.86795" lon="4.78825">
        <ele>391.16</ele>
        <time>2012-05-19T13:25:45Z</time>
      </trkpt>
      <trkpt lat="45.8679" lon="4.78826">
        <ele>391.659</ele>
        <time>2012-05-19T13:25:56Z</time>
      </trkpt>
      <trkpt lat="45.8677" lon="4.78826">
        <ele>394.198</ele>
        <time>2012-05-19T13:26:12Z</time>
      </trkpt>
      <trkpt lat="45.86768" lon="4.78827">
        <ele>394.506</ele>
        <time>2012-05-19T13:26:14Z</time>
      </trkpt>
      <trkpt lat="45.86764" lon="4.78828">
        <ele>395.883</ele>
        <time>2012-05-19T13:26:21Z</time>
      </trkpt>
      <trkpt lat="45.86764" lon="4.78828">
        <ele>403.329</ele>
        <time>2012-05-19T13:26:32Z</time>
      </trkpt>
      <trkpt lat="45.86764" lon="4.78828">
        <ele>406.222</ele>
        <time>2012-05-19T13:26:43Z</time>
      </trkpt>
      <trkpt lat="45.86764" lon="4.78828">
        <ele>406.656</ele>
        <time>2012-05-19T13:27:00Z</time>
      </trkpt>
      <trkpt lat="45.86764" lon="4.78828">
        <ele>407.552</ele>
        <time>2012-05-19T13:27:04Z</time>
      </trkpt>
      <trkpt lat="45.86773" lon="4.7889">
        <ele>408.033</ele>
        <time>2012-05-19T13:27:15Z</time>
      </trkpt>
      <trkpt lat="45.86773" lon="4.7889">
        <ele>408.484</ele>
        <time>2012-05-19T13:27:29Z</time>
      </trkpt>
      <trkpt lat="45.86773" lon="4.7889">
        <ele>408.097</ele>
        <time>2012-05-19T13:27:38Z</time>
      </trkpt>
      <trkpt lat="45.86773" lon="4.78885">
        <ele>408.291</ele>
        <time>2012-05-19T13:27:46Z</time>
      </trkpt>
      <trkpt lat="45.86749" lon="4.78868">
        <ele>409.247</ele>
        <time>2012-05-19T13:27:56Z</time>
      </trkpt>
      <trkpt lat="45.86732" lon="4.78851">
        <ele>410.17</ele>
        <time>2012-05-19T13:28:05Z</time>
      </trkpt>
      <trkpt lat="45.86709" lon="4.7884">
        <ele>409.705</ele>
        <time>2012-05-19T13:28:16Z</time>
      </trkpt>
      <trkpt lat="45.86682" lon="4.78837">
        <ele>412.276</ele>
        <time>2012-05-19T13:28:28Z</time>
      </trkpt>
      <trkpt lat="45.86658" lon="4.7883">
        <ele>410.491</ele>
        <time>2012-05-19T13:28:36Z</time>
      </trkpt>
      <trkpt lat="45.86623" lon="4.78824">
        <ele>409.361</ele>
        <time>2012-05-19T13:28:46Z</time>
      </trkpt>
      <trkpt lat="45.86599" lon="4.78804">
        <ele>409.128</ele>
        <time>2012-05-19T13:28:54Z</time>
      </trkpt>
      <trkpt lat="45.86578" lon="4.78774">
        <ele>411.678</ele>
        <time>2012-05-19T13:29:02Z</time>
      </trkpt>
      <trkpt lat="45.86568" lon="4.78757">
        <ele>415.403</ele>
        <time>2012-05-19T13:29:10Z</time>
      </trkpt>
      <trkpt lat="45.86566" lon="4.78754">
        <ele>416.008</ele>
        <time>2012-05-19T13:29:17Z</time>
      </trkpt>
      <trkpt lat="45.86556" lon="4.78734">
        <ele>418.769</ele>
        <time>2012-05-19T13:29:27Z</time>
      </trkpt>
      <trkpt lat="45.86556" lon="4.78734">
        <ele>420.817</ele>
        <time>2012-05-19T13:29:38Z</time>
      </trkpt>
      <trkpt lat="45.86556" lon="4.78734">
        <ele>424.016</ele>
        <time>2012-05-19T13:29:53Z</time>
      </trkpt>
      <trkpt lat="45.86556" lon="4.78734">
        <ele>426.254</ele>
        <time>2012-05-19T13:30:05Z</time>
      </trkpt>
      <trkpt lat="45.86556" lon="4.78734">
        <ele>429.892</ele>
        <time>2012-05-19T13:30:19Z</time>
      </trkpt>
      <trkpt lat="45.86556" lon="4.78734">
        <ele>431.151</ele>
        <time>2012-05-19T13:30:34Z</time>
      </trkpt>
      <trkpt lat="45.86556" lon="4.78734">
        <ele>430.74</ele>
        <time>2012-05-19T13:30:40Z</time>
      </trkpt>
      <trkpt lat="45.86491" lon="4.78645">
        <ele>430.72</ele>
        <time>2012-05-19T13:30:44Z</time>
      </trkpt>
      <trkpt lat="45.86488" lon="4.78642">
        <ele>428.094</ele>
        <time>2012-05-19T13:30:57Z</time>
      </trkpt>
      <trkpt lat="45.86456" lon="4.78638">
        <ele>429.113</ele>
        <time>2012-05-19T13:31:10Z</time>
      </trkpt>
      <trkpt lat="45.86446" lon="4.78639">
        <ele>431.982</ele>
        <time>2012-05-19T13:31:19Z</time>
      </trkpt>
      <trkpt lat="45.86426" lon="4.78638">
        <ele>434.152</ele>
        <time>2012-05-19T13:31:29Z</time>
      </trkpt>
      <trkpt lat="45.86426" lon="4.78638">
        <ele>434.613</ele>
        <time>2012-05-19T13:31:30Z</time>
      </trkpt>
      <trkpt lat="45.86408" lon="4.78639">
        <ele>435.917</ele>
        <time>2012-05-19T13:31:40Z</time>
      </trkpt>
      <trkpt lat="45.86397" lon="4.7864">
        <ele>436.824</ele>
        <time>2012-05-19T13:31:45Z</time>
      </trkpt>
      <trkpt lat="45.86383" lon="4.78642">
        <ele>436.289</ele>
        <time>2012-05-19T13:31:57Z</time>
      </trkpt>
      <trkpt lat="45.86371" lon="4.78644">
        <ele>435.008</ele>
        <time>2012-05-19T13:32:08Z</time>
      </trkpt>
      <trkpt lat="45.8634" lon="4.78639">
        <ele>433.184</ele>
        <time>2012-05-19T13:32:21Z</time>
      </trkpt>
      <trkpt lat="45.86308" lon="4.78621">
        <ele>430.989</ele>
        <time>2012-05-19T13:32:31Z</time>
      </trkpt>
      <trkpt lat="45.8628" lon="4.78607">
        <ele>428.028</ele>
        <time>2012-05-19T13:32:39Z</time>
      </trkpt>
      <trkpt lat="45.86256" lon="4.78598">
        <ele>425.46</ele>
        <time>2012-05-19T13:32:47Z</time>
      </trkpt>
      <trkpt lat="45.86231" lon="4.78577">
        <ele>425.749</ele>
        <time>2012-05-19T13:32:55Z</time>
      </trkpt>
      <trkpt lat="45.86208" lon="4.78553">
        <ele>431.216</ele>
        <time>2012-05-19T13:33:04Z</time>
      </trkpt>
      <trkpt lat="45.86201" lon="4.78546">
        <ele>434.846</ele>
        <time>2012-05-19T13:33:13Z</time>
      </trkpt>
      <trkpt lat="45.86201" lon="4.78546">
        <ele>447.177</ele>
        <time>2012-05-19T13:37:18Z</time>
      </trkpt>
      <trkpt lat="45.86201" lon="4.78546">
        <ele>448.852</ele>
        <time>2012-05-19T13:37:31Z</time>
      </trkpt>
      <trkpt lat="45.86201" lon="4.78546">
        <ele>449.111</ele>
        <time>2012-05-19T13:37:33Z</time>
      </trkpt>
      <trkpt lat="45.86198" lon="4.78538">
        <ele>449.332</ele>
        <time>2012-05-19T13:37:45Z</time>
      </trkpt>
      <trkpt lat="45.86198" lon="4.78538">
        <ele>450.517</ele>
        <time>2012-05-19T13:37:54Z</time>
      </trkpt>
      <trkpt lat="45.86198" lon="4.78538">
        <ele>450.627</ele>
        <time>2012-05-19T13:37:56Z</time>
      </trkpt>
      <trkpt lat="45.86198" lon="4.78538">
        <ele>451.766</ele>
        <time>2012-05-19T13:38:07Z</time>
      </trkpt>
      <trkpt lat="45.86114" lon="4.78508">
        <ele>454.679</ele>
        <time>2012-05-19T13:38:20Z</time>
      </trkpt>
      <trkpt lat="45.86096" lon="4.78508">
        <ele>460.201</ele>
        <time>2012-05-19T13:38:33Z</time>
      </trkpt>
      <trkpt lat="45.86096" lon="4.78508">
        <ele>463.264</ele>
        <time>2012-05-19T13:38:43Z</time>
      </trkpt>
      <trkpt lat="45.86089" lon="4.78519">
        <ele>464.183</ele>
        <time>2012-05-19T13:39:19Z</time>
      </trkpt>
      <trkpt lat="45.86088" lon="4.78526">
        <ele>464.628</ele>
        <time>2012-05-19T13:39:22Z</time>
      </trkpt>
      <trkpt lat="45.86095" lon="4.78547">
        <ele>464.67</ele>
        <time>2012-05-19T13:39:31Z</time>
      </trkpt>
      <trkpt lat="45.861" lon="4.7855">
        <ele>463.626</ele>
        <time>2012-05-19T13:39:33Z</time>
      </trkpt>
      <trkpt lat="45.86115" lon="4.78573">
        <ele>463.585</ele>
        <time>2012-05-19T13:39:44Z</time>
      </trkpt>
      <trkpt lat="45.86108" lon="4.78599">
        <ele>465.679</ele>
        <time>2012-05-19T13:39:56Z</time>
      </trkpt>
      <trkpt lat="45.86108" lon="4.78601">
        <ele>465.681</ele>
        <time>2012-05-19T13:39:57Z</time>
      </trkpt>
      <trkpt lat="45.86106" lon="4.78607">
        <ele>464.745</ele>
        <time>2012-05-19T13:40:06Z</time>
      </trkpt>
      <trkpt lat="45.86106" lon="4.78607">
        <ele>465.88</ele>
        <time>2012-05-19T13:40:17Z</time>
      </trkpt>
      <trkpt lat="45.86129" lon="4.78624">
        <ele>465.257</ele>
        <time>2012-05-19T13:40:28Z</time>
      </trkpt>
      <trkpt lat="45.86153" lon="4.78641">
        <ele>465.097</ele>
        <time>2012-05-19T13:40:39Z</time>
      </trkpt>
      <trkpt lat="45.86177" lon="4.7866">
        <ele>465.294</ele>
        <time>2012-05-19T13:40:48Z</time>
      </trkpt>
      <trkpt lat="45.86202" lon="4.78678">
        <ele>461.18</ele>
        <time>2012-05-19T13:40:56Z</time>
      </trkpt>
      <trkpt lat="45.86225" lon="4.78694">
        <ele>460.029</ele>
        <time>2012-05-19T13:41:02Z</time>
      </trkpt>
      <trkpt lat="45.86253" lon="4.78713">
        <ele>459.571</ele>
        <time>2012-05-19T13:41:10Z</time>
      </trkpt>
      <trkpt lat="45.86267" lon="4.78724">
        <ele>458.674</ele>
        <time>2012-05-19T13:41:14Z</time>
      </trkpt>
      <trkpt lat="45.86285" lon="4.78738">
        <ele>457.904</ele>
        <time>2012-05-19T13:41:18Z</time>
      </trkpt>
      <trkpt lat="45.86327" lon="4.78778">
        <ele>454.623</ele>
        <time>2012-05-19T13:41:26Z</time>
      </trkpt>
      <trkpt lat="45.86374" lon="4.78827">
        <ele>451.756</ele>
        <time>2012-05-19T13:41:34Z</time>
      </trkpt>
      <trkpt lat="45.86382" lon="4.78834">
        <ele>450.983</ele>
        <time>2012-05-19T13:41:36Z</time>
      </trkpt>
      <trkpt lat="45.86415" lon="4.78904">
        <ele>449.703</ele>
        <time>2012-05-19T13:41:49Z</time>
      </trkpt>
      <trkpt lat="45.86425" lon="4.78929">
        <ele>449.188</ele>
        <time>2012-05-19T13:41:57Z</time>
      </trkpt>
      <trkpt lat="45.86433" lon="4.78943">
        <ele>447.902</ele>
        <time>2012-05-19T13:42:13Z</time>
      </trkpt>
      <trkpt lat="45.86448" lon="4.7897">
        <ele>447.504</ele>
        <time>2012-05-19T13:42:21Z</time>
      </trkpt>
      <trkpt lat="45.86476" lon="4.79012">
        <ele>445.54</ele>
        <time>2012-05-19T13:42:33Z</time>
      </trkpt>
      <trkpt lat="45.86489" lon="4.79034">
        <ele>445.14</ele>
        <time>2012-05-19T13:42:38Z</time>
      </trkpt>
      <trkpt lat="45.86533" lon="4.79094">
        <ele>444.679</ele>
        <time>2012-05-19T13:42:48Z</time>
      </trkpt>
      <trkpt lat="45.86577" lon="4.79178">
        <ele>441.264</ele>
        <time>2012-05-19T13:42:57Z</time>
      </trkpt>
      <trkpt lat="45.86632" lon="4.79309">
        <ele>433.665</ele>
        <time>2012-05-19T13:43:10Z</time>
      </trkpt>
      <trkpt lat="45.86641" lon="4.79333">
        <ele>433.196</ele>
        <time>2012-05-19T13:43:13Z</time>
      </trkpt>
      <trkpt lat="45.86649" lon="4.79362">
        <ele>432.694</ele>
        <time>2012-05-19T13:43:19Z</time>
      </trkpt>
      <trkpt lat="45.86652" lon="4.79361">
        <ele>431.706</ele>
        <time>2012-05-19T13:43:23Z</time>
      </trkpt>
      <trkpt lat="45.86655" lon="4.79336">
        <ele>430.38</ele>
        <time>2012-05-19T13:43:28Z</time>
      </trkpt>
      <trkpt lat="45.86655" lon="4.79304">
        <ele>427.723</ele>
        <time>2012-05-19T13:43:33Z</time>
      </trkpt>
      <trkpt lat="45.86655" lon="4.7926">
        <ele>425.492</ele>
        <time>2012-05-19T13:43:40Z</time>
      </trkpt>
      <trkpt lat="45.86659" lon="4.79212">
        <ele>422.409</ele>
        <time>2012-05-19T13:43:49Z</time>
      </trkpt>
      <trkpt lat="45.86661" lon="4.79192">
        <ele>422.736</ele>
        <time>2012-05-19T13:43:56Z</time>
      </trkpt>
      <trkpt lat="45.86661" lon="4.79192">
        <ele>423.936</ele>
        <time>2012-05-19T13:46:05Z</time>
      </trkpt>
      <trkpt lat="45.86664" lon="4.79182">
        <ele>423.857</ele>
        <time>2012-05-19T13:46:09Z</time>
      </trkpt>
      <trkpt lat="45.86726" lon="4.79201">
        <ele>415.897</ele>
        <time>2012-05-19T13:46:20Z</time>
      </trkpt>
      <trkpt lat="45.86755" lon="4.79216">
        <ele>409.227</ele>
        <time>2012-05-19T13:46:28Z</time>
      </trkpt>
      <trkpt lat="45.86763" lon="4.79222">
        <ele>406.466</ele>
        <time>2012-05-19T13:46:36Z</time>
      </trkpt>
      <trkpt lat="45.8678" lon="4.79228">
        <ele>404.58</ele>
        <time>2012-05-19T13:46:53Z</time>
      </trkpt>
      <trkpt lat="45.86789" lon="4.79233">
        <ele>405.933</ele>
        <time>2012-05-19T13:46:57Z</time>
      </trkpt>
      <trkpt lat="45.86804" lon="4.79235">
        <ele>404.687</ele>
        <time>2012-05-19T13:47:05Z</time>
      </trkpt>
      <trkpt lat="45.86809" lon="4.79235">
        <ele>404.573</ele>
        <time>2012-05-19T13:47:07Z</time>
      </trkpt>
      <trkpt lat="45.86822" lon="4.79248">
        <ele>403.698</ele>
        <time>2012-05-19T13:47:16Z</time>
      </trkpt>
      <trkpt lat="45.86851" lon="4.79265">
        <ele>402.86</ele>
        <time>2012-05-19T13:47:27Z</time>
      </trkpt>
      <trkpt lat="45.86868" lon="4.79268">
        <ele>402.626</ele>
        <time>2012-05-19T13:47:32Z</time>
      </trkpt>
      <trkpt lat="45.86884" lon="4.79255">
        <ele>394.593</ele>
        <time>2012-05-19T13:47:41Z</time>
      </trkpt>
      <trkpt lat="45.86887" lon="4.79252">
        <ele>393.722</ele>
        <time>2012-05-19T13:47:43Z</time>
      </trkpt>
      <trkpt lat="45.86895" lon="4.79233">
        <ele>386.787</ele>
        <time>2012-05-19T13:47:51Z</time>
      </trkpt>
      <trkpt lat="45.869" lon="4.79225">
        <ele>384.815</ele>
        <time>2012-05-19T13:47:55Z</time>
      </trkpt>
      <trkpt lat="45.86908" lon="4.79213">
        <ele>382.3</ele>
        <time>2012-05-19T13:47:59Z</time>
      </trkpt>
      <trkpt lat="45.86923" lon="4.79207">
        <ele>378.977</ele>
        <time>2012-05-19T13:48:06Z</time>
      </trkpt>
      <trkpt lat="45.86942" lon="4.79201">
        <ele>377.674</ele>
        <time>2012-05-19T13:48:13Z</time>
      </trkpt>
      <trkpt lat="45.86949" lon="4.792">
        <ele>376.095</ele>
        <time>2012-05-19T13:48:21Z</time>
      </trkpt>
      <trkpt lat="45.86973" lon="4.79203">
        <ele>375.734</ele>
        <time>2012-05-19T13:48:29Z</time>
      </trkpt>
      <trkpt lat="45.86975" lon="4.79205">
        <ele>375.188</ele>
        <time>2012-05-19T13:48:32Z</time>
      </trkpt>
      <trkpt lat="45.86986" lon="4.79225">
        <ele>376.353</ele>
        <time>2012-05-19T13:48:43Z</time>
      </trkpt>
      <trkpt lat="45.86989" lon="4.79227">
        <ele>376.306</ele>
        <time>2012-05-19T13:48:48Z</time>
      </trkpt>
      <trkpt lat="45.86994" lon="4.7923">
        <ele>375.837</ele>
        <time>2012-05-19T13:48:52Z</time>
      </trkpt>
      <trkpt lat="45.86999" lon="4.79231">
        <ele>376.599</ele>
        <time>2012-05-19T13:48:55Z</time>
      </trkpt>
      <trkpt lat="45.87024" lon="4.79249">
        <ele>375.452</ele>
        <time>2012-05-19T13:49:07Z</time>
      </trkpt>
      <trkpt lat="45.87031" lon="4.79257">
        <ele>375.742</ele>
        <time>2012-05-19T13:49:11Z</time>
      </trkpt>
      <trkpt lat="45.87039" lon="4.79274">
        <ele>376.09</ele>
        <time>2012-05-19T13:49:17Z</time>
      </trkpt>
      <trkpt lat="45.8704" lon="4.79281">
        <ele>376.74</ele>
        <time>2012-05-19T13:49:20Z</time>
      </trkpt>
      <trkpt lat="45.87046" lon="4.79299">
        <ele>376.092</ele>
        <time>2012-05-19T13:49:26Z</time>
      </trkpt>
      <trkpt lat="45.87062" lon="4.79314">
        <ele>374.733</ele>
        <time>2012-05-19T13:49:32Z</time>
      </trkpt>
      <trkpt lat="45.87068" lon="4.7932">
        <ele>374.039</ele>
        <time>2012-05-19T13:49:35Z</time>
      </trkpt>
      <trkpt lat="45.87078" lon="4.79335">
        <ele>372.523</ele>
        <time>2012-05-19T13:49:47Z</time>
      </trkpt>
      <trkpt lat="45.8708" lon="4.79349">
        <ele>373.323</ele>
        <time>2012-05-19T13:52:12Z</time>
      </trkpt>
      <trkpt lat="45.87084" lon="4.79357">
        <ele>373.277</ele>
        <time>2012-05-19T13:52:15Z</time>
      </trkpt>
      <trkpt lat="45.87103" lon="4.79355">
        <ele>372.557</ele>
        <time>2012-05-19T13:52:20Z</time>
      </trkpt>
      <trkpt lat="45.87139" lon="4.7935">
        <ele>370.822</ele>
        <time>2012-05-19T13:52:26Z</time>
      </trkpt>
      <trkpt lat="45.87166" lon="4.79345">
        <ele>364.101</ele>
        <time>2012-05-19T13:52:33Z</time>
      </trkpt>
      <trkpt lat="45.87168" lon="4.79338">
        <ele>362.228</ele>
        <time>2012-05-19T13:53:32Z</time>
      </trkpt>
      <trkpt lat="45.87191" lon="4.79342">
        <ele>359.617</ele>
        <time>2012-05-19T13:53:40Z</time>
      </trkpt>
      <trkpt lat="45.87225" lon="4.79341">
        <ele>353.066</ele>
        <time>2012-05-19T13:53:51Z</time>
      </trkpt>
      <trkpt lat="45.87228" lon="4.79346">
        <ele>350.358</ele>
        <time>2012-05-19T13:53:55Z</time>
      </trkpt>
      <trkpt lat="45.87232" lon="4.79372">
        <ele>349.488</ele>
        <time>2012-05-19T13:54:07Z</time>
      </trkpt>
      <trkpt lat="45.87233" lon="4.79395">
        <ele>350.891</ele>
        <time>2012-05-19T13:54:19Z</time>
      </trkpt>
      <trkpt lat="45.87233" lon="4.79401">
        <ele>351.185</ele>
        <time>2012-05-19T13:54:24Z</time>
      </trkpt>
      <trkpt lat="45.87233" lon="4.79419">
        <ele>354.248</ele>
        <time>2012-05-19T13:54:34Z</time>
      </trkpt>
      <trkpt lat="45.87236" lon="4.79429">
        <ele>352.484</ele>
        <time>2012-05-19T13:54:39Z</time>
      </trkpt>
      <trkpt lat="45.87239" lon="4.79455">
        <ele>353.448</ele>
        <time>2012-05-19T13:54:50Z</time>
      </trkpt>
      <trkpt lat="45.8724" lon="4.79472">
        <ele>354.324</ele>
        <time>2012-05-19T13:55:00Z</time>
      </trkpt>
      <trkpt lat="45.8724" lon="4.79471">
        <ele>354.584</ele>
        <time>2012-05-19T13:55:06Z</time>
      </trkpt>
      <trkpt lat="45.87241" lon="4.79506">
        <ele>351.637</ele>
        <time>2012-05-19T13:55:16Z</time>
      </trkpt>
      <trkpt lat="45.87243" lon="4.79567">
        <ele>347.961</ele>
        <time>2012-05-19T13:55:22Z</time>
      </trkpt>
      <trkpt lat="45.87253" lon="4.79664">
        <ele>345.873</ele>
        <time>2012-05-19T13:55:31Z</time>
      </trkpt>
      <trkpt lat="45.87272" lon="4.79735">
        <ele>343.287</ele>
        <time>2012-05-19T13:55:41Z</time>
      </trkpt>
      <trkpt lat="45.87293" lon="4.79798">
        <ele>342.859</ele>
        <time>2012-05-19T13:55:51Z</time>
      </trkpt>
      <trkpt lat="45.87306" lon="4.79835">
        <ele>344.904</ele>
        <time>2012-05-19T13:56:00Z</time>
      </trkpt>
      <trkpt lat="45.87316" lon="4.79847">
        <ele>346.19</ele>
        <time>2012-05-19T13:56:06Z</time>
      </trkpt>
      <trkpt lat="45.87318" lon="4.7985">
        <ele>350.589</ele>
        <time>2012-05-19T13:56:12Z</time>
      </trkpt>
      <trkpt lat="45.87311" lon="4.79843">
        <ele>350.569</ele>
        <time>2012-05-19T13:56:16Z</time>
      </trkpt>
      <trkpt lat="45.87296" lon="4.79856">
        <ele>350.331</ele>
        <time>2012-05-19T13:56:22Z</time>
      </trkpt>
      <trkpt lat="45.87296" lon="4.79856">
        <ele>351.604</ele>
        <time>2012-05-19T13:56:38Z</time>
      </trkpt>
      <trkpt lat="45.87296" lon="4.79856">
        <ele>351.613</ele>
        <time>2012-05-19T13:56:40Z</time>
      </trkpt>
      <trkpt lat="45.87276" lon="4.79854">
        <ele>349.125</ele>
        <time>2012-05-19T13:56:48Z</time>
      </trkpt>
      <trkpt lat="45.87258" lon="4.7985">
        <ele>348.029</ele>
        <time>2012-05-19T13:56:56Z</time>
      </trkpt>
      <trkpt lat="45.87247" lon="4.79845">
        <ele>348.405</ele>
        <time>2012-05-19T13:57:02Z</time>
      </trkpt>
      <trkpt lat="45.87241" lon="4.79839">
        <ele>348.436</ele>
        <time>2012-05-19T13:57:10Z</time>
      </trkpt>
      <trkpt lat="45.87228" lon="4.79826">
        <ele>349.263</ele>
        <time>2012-05-19T13:57:48Z</time>
      </trkpt>
      <trkpt lat="45.87223" lon="4.79822">
        <ele>348.907</ele>
        <time>2012-05-19T13:57:50Z</time>
      </trkpt>
      <trkpt lat="45.87222" lon="4.79821">
        <ele>348.692</ele>
        <time>2012-05-19T13:58:03Z</time>
      </trkpt>
      <trkpt lat="45.87222" lon="4.79821">
        <ele>350.426</ele>
        <time>2012-05-19T13:58:22Z</time>
      </trkpt>
      <trkpt lat="45.87226" lon="4.79825">
        <ele>351.083</ele>
        <time>2012-05-19T13:58:28Z</time>
      </trkpt>
      <trkpt lat="45.87229" lon="4.79828">
        <ele>352.002</ele>
        <time>2012-05-19T13:58:37Z</time>
      </trkpt>
      <trkpt lat="45.87229" lon="4.79828">
        <ele>352.471</ele>
        <time>2012-05-19T13:58:47Z</time>
      </trkpt>
      <trkpt lat="45.87235" lon="4.79834">
        <ele>352.079</ele>
        <time>2012-05-19T13:58:57Z</time>
      </trkpt>
      <trkpt lat="45.87235" lon="4.79834">
        <ele>352.979</ele>
        <time>2012-05-19T13:59:12Z</time>
      </trkpt>
      <trkpt lat="45.87235" lon="4.79834">
        <ele>353.244</ele>
        <time>2012-05-19T13:59:23Z</time>
      </trkpt>
      <trkpt lat="45.87235" lon="4.79834">
        <ele>353.322</ele>
        <time>2012-05-19T13:59:31Z</time>
      </trkpt>
      <trkpt lat="45.87255" lon="4.79849">
        <ele>353.283</ele>
        <time>2012-05-19T13:59:37Z</time>
      </trkpt>
      <trkpt lat="45.87263" lon="4.79851">
        <ele>353.075</ele>
        <time>2012-05-19T14:00:55Z</time>
      </trkpt>
      <trkpt lat="45.87263" lon="4.79851">
        <ele>352.16</ele>
        <time>2012-05-19T14:01:06Z</time>
      </trkpt>
      <trkpt lat="45.87263" lon="4.79851">
        <ele>351.458</ele>
        <time>2012-05-19T14:01:16Z</time>
      </trkpt>
      <trkpt lat="45.87259" lon="4.79933">
        <ele>349.797</ele>
        <time>2012-05-19T14:01:23Z</time>
      </trkpt>
      <trkpt lat="45.87261" lon="4.79944">
        <ele>345.291</ele>
        <time>2012-05-19T14:01:32Z</time>
      </trkpt>
      <trkpt lat="45.87264" lon="4.7994">
        <ele>343.614</ele>
        <time>2012-05-19T14:02:23Z</time>
      </trkpt>
      <trkpt lat="45.87264" lon="4.79932">
        <ele>342.296</ele>
        <time>2012-05-19T14:02:35Z</time>
      </trkpt>
      <trkpt lat="45.87253" lon="4.79914">
        <ele>342.292</ele>
        <time>2012-05-19T14:03:07Z</time>
      </trkpt>
      <trkpt lat="45.87249" lon="4.79907">
        <ele>343.031</ele>
        <time>2012-05-19T14:03:23Z</time>
      </trkpt>
      <trkpt lat="45.87245" lon="4.79899">
        <ele>343.77</ele>
        <time>2012-05-19T14:03:33Z</time>
      </trkpt>
      <trkpt lat="45.87241" lon="4.79889">
        <ele>345.562</ele>
        <time>2012-05-19T14:03:44Z</time>
      </trkpt>
      <trkpt lat="45.87237" lon="4.79884">
        <ele>346.85</ele>
        <time>2012-05-19T14:04:04Z</time>
      </trkpt>
      <trkpt lat="45.87229" lon="4.79877">
        <ele>347.968</ele>
        <time>2012-05-19T14:04:17Z</time>
      </trkpt>
      <trkpt lat="45.87228" lon="4.7987">
        <ele>348.151</ele>
        <time>2012-05-19T14:04:24Z</time>
      </trkpt>
      <trkpt lat="45.87234" lon="4.79864">
        <ele>350.812</ele>
        <time>2012-05-19T14:04:37Z</time>
      </trkpt>
      <trkpt lat="45.87238" lon="4.79863">
        <ele>350.926</ele>
        <time>2012-05-19T14:04:44Z</time>
      </trkpt>
      <trkpt lat="45.87261" lon="4.79868">
        <ele>350.877</ele>
        <time>2012-05-19T14:04:54Z</time>
      </trkpt>
      <trkpt lat="45.87278" lon="4.79865">
        <ele>353.167</ele>
        <time>2012-05-19T14:05:02Z</time>
      </trkpt>
      <trkpt lat="45.8729" lon="4.79859">
        <ele>351.421</ele>
        <time>2012-05-19T14:05:11Z</time>
      </trkpt>
      <trkpt lat="45.87291" lon="4.79859">
        <ele>350.981</ele>
        <time>2012-05-19T14:06:12Z</time>
      </trkpt>
      <trkpt lat="45.87285" lon="4.79856">
        <ele>352.38</ele>
        <time>2012-05-19T14:06:23Z</time>
      </trkpt>
      <trkpt lat="45.87272" lon="4.79853">
        <ele>354.55</ele>
        <time>2012-05-19T14:06:36Z</time>
      </trkpt>
      <trkpt lat="45.87269" lon="4.79852">
        <ele>355.335</ele>
        <time>2012-05-19T14:06:51Z</time>
      </trkpt>
      <trkpt lat="45.8726" lon="4.7985">
        <ele>356.161</ele>
        <time>2012-05-19T14:06:58Z</time>
      </trkpt>
      <trkpt lat="45.87259" lon="4.79851">
        <ele>356.866</ele>
        <time>2012-05-19T14:07:23Z</time>
      </trkpt>
      <trkpt lat="45.87246" lon="4.79845">
        <ele>356.518</ele>
        <time>2012-05-19T14:08:04Z</time>
      </trkpt>
      <trkpt lat="45.87242" lon="4.79843">
        <ele>357.374</ele>
        <time>2012-05-19T14:08:07Z</time>
      </trkpt>
      <trkpt lat="45.87226" lon="4.79826">
        <ele>359.975</ele>
        <time>2012-05-19T14:08:19Z</time>
      </trkpt>
      <trkpt lat="45.87216" lon="4.79813">
        <ele>361.174</ele>
        <time>2012-05-19T14:08:30Z</time>
      </trkpt>
      <trkpt lat="45.87212" lon="4.79812">
        <ele>363.52</ele>
        <time>2012-05-19T14:08:47Z</time>
      </trkpt>
      <trkpt lat="45.87204" lon="4.79806">
        <ele>364.947</ele>
        <time>2012-05-19T14:09:12Z</time>
      </trkpt>
      <trkpt lat="45.87204" lon="4.79807">
        <ele>365.362</ele>
        <time>2012-05-19T14:09:22Z</time>
      </trkpt>
      <trkpt lat="45.87205" lon="4.79808">
        <ele>364.973</ele>
        <time>2012-05-19T14:09:24Z</time>
      </trkpt>
      <trkpt lat="45.87232" lon="4.7983">
        <ele>359.679</ele>
        <time>2012-05-19T14:09:33Z</time>
      </trkpt>
      <trkpt lat="45.87262" lon="4.79851">
        <ele>355.042</ele>
        <time>2012-05-19T14:09:41Z</time>
      </trkpt>
      <trkpt lat="45.87285" lon="4.79855">
        <ele>353.085</ele>
        <time>2012-05-19T14:09:50Z</time>
      </trkpt>
      <trkpt lat="45.87305" lon="4.79856">
        <ele>350.643</ele>
        <time>2012-05-19T14:09:59Z</time>
      </trkpt>
      <trkpt lat="45.87315" lon="4.79857">
        <ele>349.074</ele>
        <time>2012-05-19T14:10:08Z</time>
      </trkpt>
      <trkpt lat="45.87319" lon="4.79855">
        <ele>348.228</ele>
        <time>2012-05-19T14:10:10Z</time>
      </trkpt>
      <trkpt lat="45.87319" lon="4.79855">
        <ele>346.785</ele>
        <time>2012-05-19T14:10:22Z</time>
      </trkpt>
      <trkpt lat="45.87319" lon="4.79855">
        <ele>346.664</ele>
        <time>2012-05-19T14:10:25Z</time>
      </trkpt>
      <trkpt lat="45.87316" lon="4.79856">
        <ele>347.049</ele>
        <time>2012-05-19T14:10:38Z</time>
      </trkpt>
      <trkpt lat="45.87316" lon="4.79856">
        <ele>350.669</ele>
        <time>2012-05-19T14:10:51Z</time>
      </trkpt>
      <trkpt lat="45.87316" lon="4.79856">
        <ele>350.622</ele>
        <time>2012-05-19T14:11:03Z</time>
      </trkpt>
      <trkpt lat="45.87316" lon="4.79856">
        <ele>350.61</ele>
        <time>2012-05-19T14:11:06Z</time>
      </trkpt>
      <trkpt lat="45.87316" lon="4.79856">
        <ele>351.038</ele>
        <time>2012-05-19T14:11:11Z</time>
      </trkpt>
      <trkpt lat="45.873" lon="4.79856">
        <ele>352.266</ele>
        <time>2012-05-19T14:11:22Z</time>
      </trkpt>
      <trkpt lat="45.873" lon="4.79856">
        <ele>352.973</ele>
        <time>2012-05-19T14:11:41Z</time>
      </trkpt>
      <trkpt lat="45.873" lon="4.79856">
        <ele>352.023</ele>
        <time>2012-05-19T14:12:36Z</time>
      </trkpt>
      <trkpt lat="45.873" lon="4.79856">
        <ele>353.013</ele>
        <time>2012-05-19T14:12:54Z</time>
      </trkpt>
      <trkpt lat="45.873" lon="4.79856">
        <ele>352.161</ele>
        <time>2012-05-19T14:13:22Z</time>
      </trkpt>
      <trkpt lat="45.873" lon="4.79856">
        <ele>351.514</ele>
        <time>2012-05-19T14:13:31Z</time>
      </trkpt>
      <trkpt lat="45.87314" lon="4.79858">
        <ele>348.645</ele>
        <time>2012-05-19T14:13:38Z</time>
      </trkpt>
      <trkpt lat="45.87325" lon="4.79854">
        <ele>346.777</ele>
        <time>2012-05-19T14:13:40Z</time>
      </trkpt>
      <trkpt lat="45.87367" lon="4.79864">
        <ele>339.932</ele>
        <time>2012-05-19T14:13:48Z</time>
      </trkpt>
      <trkpt lat="45.87399" lon="4.7988">
        <ele>336.952</ele>
        <time>2012-05-19T14:13:57Z</time>
      </trkpt>
      <trkpt lat="45.8741" lon="4.79896">
        <ele>336.303</ele>
        <time>2012-05-19T14:14:04Z</time>
      </trkpt>
      <trkpt lat="45.87443" lon="4.79947">
        <ele>329.437</ele>
        <time>2012-05-19T14:14:12Z</time>
      </trkpt>
      <trkpt lat="45.87454" lon="4.79974">
        <ele>326.395</ele>
        <time>2012-05-19T14:14:16Z</time>
      </trkpt>
      <trkpt lat="45.87454" lon="4.79981">
        <ele>325.052</ele>
        <time>2012-05-19T14:14:18Z</time>
      </trkpt>
      <trkpt lat="45.87446" lon="4.79985">
        <ele>325.896</ele>
        <time>2012-05-19T14:14:28Z</time>
      </trkpt>
      <trkpt lat="45.87443" lon="4.79983">
        <ele>326.235</ele>
        <time>2012-05-19T14:15:44Z</time>
      </trkpt>
      <trkpt lat="45.87432" lon="4.79984">
        <ele>328.127</ele>
        <time>2012-05-19T14:15:57Z</time>
      </trkpt>
      <trkpt lat="45.87417" lon="4.7999">
        <ele>330.365</ele>
        <time>2012-05-19T14:16:10Z</time>
      </trkpt>
      <trkpt lat="45.87404" lon="4.79995">
        <ele>333.775</ele>
        <time>2012-05-19T14:16:22Z</time>
      </trkpt>
      <trkpt lat="45.87392" lon="4.79997">
        <ele>335.525</ele>
        <time>2012-05-19T14:16:33Z</time>
      </trkpt>
      <trkpt lat="45.87384" lon="4.79997">
        <ele>335.804</ele>
        <time>2012-05-19T14:16:43Z</time>
      </trkpt>
      <trkpt lat="45.87384" lon="4.79997">
        <ele>335.606</ele>
        <time>2012-05-19T14:16:44Z</time>
      </trkpt>
      <trkpt lat="45.87365" lon="4.80013">
        <ele>336.17</ele>
        <time>2012-05-19T14:16:56Z</time>
      </trkpt>
      <trkpt lat="45.8735" lon="4.80025">
        <ele>336.765</ele>
        <time>2012-05-19T14:17:05Z</time>
      </trkpt>
      <trkpt lat="45.87339" lon="4.80032">
        <ele>337.292</ele>
        <time>2012-05-19T14:17:13Z</time>
      </trkpt>
      <trkpt lat="45.87335" lon="4.8004">
        <ele>336.029</ele>
        <time>2012-05-19T14:17:22Z</time>
      </trkpt>
      <trkpt lat="45.87331" lon="4.8005">
        <ele>334.86</ele>
        <time>2012-05-19T14:17:35Z</time>
      </trkpt>
      <trkpt lat="45.87322" lon="4.80066">
        <ele>332.356</ele>
        <time>2012-05-19T14:17:42Z</time>
      </trkpt>
      <trkpt lat="45.87322" lon="4.80083">
        <ele>329.635</ele>
        <time>2012-05-19T14:17:49Z</time>
      </trkpt>
      <trkpt lat="45.87318" lon="4.80084">
        <ele>327.975</ele>
        <time>2012-05-19T14:17:57Z</time>
      </trkpt>
      <trkpt lat="45.8731" lon="4.80091">
        <ele>329.003</ele>
        <time>2012-05-19T14:18:08Z</time>
      </trkpt>
      <trkpt lat="45.87307" lon="4.80118">
        <ele>328.17</ele>
        <time>2012-05-19T14:18:15Z</time>
      </trkpt>
      <trkpt lat="45.87298" lon="4.80197">
        <ele>324.066</ele>
        <time>2012-05-19T14:18:20Z</time>
      </trkpt>
      <trkpt lat="45.87297" lon="4.80189">
        <ele>321.755</ele>
        <time>2012-05-19T14:18:28Z</time>
      </trkpt>
      <trkpt lat="45.87295" lon="4.80198">
        <ele>321.246</ele>
        <time>2012-05-19T14:18:36Z</time>
      </trkpt>
      <trkpt lat="45.87289" lon="4.80211">
        <ele>321.358</ele>
        <time>2012-05-19T14:18:48Z</time>
      </trkpt>
      <trkpt lat="45.87284" lon="4.80221">
        <ele>322.166</ele>
        <time>2012-05-19T14:19:05Z</time>
      </trkpt>
      <trkpt lat="45.87278" lon="4.8023">
        <ele>323.745</ele>
        <time>2012-05-19T14:19:21Z</time>
      </trkpt>
      <trkpt lat="45.8727" lon="4.80233">
        <ele>325.611</ele>
        <time>2012-05-19T14:19:34Z</time>
      </trkpt>
      <trkpt lat="45.87267" lon="4.80229">
        <ele>327.672</ele>
        <time>2012-05-19T14:19:50Z</time>
      </trkpt>
      <trkpt lat="45.87265" lon="4.80227">
        <ele>328.823</ele>
        <time>2012-05-19T14:20:27Z</time>
      </trkpt>
      <trkpt lat="45.87257" lon="4.8022">
        <ele>329.174</ele>
        <time>2012-05-19T14:20:34Z</time>
      </trkpt>
      <trkpt lat="45.87249" lon="4.80213">
        <ele>330.682</ele>
        <time>2012-05-19T14:20:46Z</time>
      </trkpt>
      <trkpt lat="45.87241" lon="4.80204">
        <ele>334.095</ele>
        <time>2012-05-19T14:20:56Z</time>
      </trkpt>
      <trkpt lat="45.87233" lon="4.802">
        <ele>337.532</ele>
        <time>2012-05-19T14:21:09Z</time>
      </trkpt>
      <trkpt lat="45.87217" lon="4.80197">
        <ele>338.844</ele>
        <time>2012-05-19T14:21:28Z</time>
      </trkpt>
      <trkpt lat="45.87215" lon="4.802">
        <ele>338.991</ele>
        <time>2012-05-19T14:21:30Z</time>
      </trkpt>
      <trkpt lat="45.87215" lon="4.80213">
        <ele>338.798</ele>
        <time>2012-05-19T14:21:34Z</time>
      </trkpt>
      <trkpt lat="45.87194" lon="4.80291">
        <ele>337.443</ele>
        <time>2012-05-19T14:21:46Z</time>
      </trkpt>
      <trkpt lat="45.8718" lon="4.80342">
        <ele>335.773</ele>
        <time>2012-05-19T14:21:54Z</time>
      </trkpt>
      <trkpt lat="45.87183" lon="4.80356">
        <ele>334.994</ele>
        <time>2012-05-19T14:22:01Z</time>
      </trkpt>
      <trkpt lat="45.87183" lon="4.80356">
        <ele>335.094</ele>
        <time>2012-05-19T14:22:25Z</time>
      </trkpt>
      <trkpt lat="45.87211" lon="4.80362">
        <ele>330.789</ele>
        <time>2012-05-19T14:22:33Z</time>
      </trkpt>
      <trkpt lat="45.87266" lon="4.80373">
        <ele>324.141</ele>
        <time>2012-05-19T14:22:41Z</time>
      </trkpt>
      <trkpt lat="45.87287" lon="4.80397">
        <ele>321.856</ele>
        <time>2012-05-19T14:22:45Z</time>
      </trkpt>
      <trkpt lat="45.87292" lon="4.80422">
        <ele>320.007</ele>
        <time>2012-05-19T14:22:48Z</time>
      </trkpt>
      <trkpt lat="45.87297" lon="4.80442">
        <ele>318.183</ele>
        <time>2012-05-19T14:22:50Z</time>
      </trkpt>
      <trkpt lat="45.87303" lon="4.80458">
        <ele>318.068</ele>
        <time>2012-05-19T14:22:52Z</time>
      </trkpt>
      <trkpt lat="45.87318" lon="4.80489">
        <ele>314.651</ele>
        <time>2012-05-19T14:22:56Z</time>
      </trkpt>
      <trkpt lat="45.87328" lon="4.80501">
        <ele>313.636</ele>
        <time>2012-05-19T14:22:58Z</time>
      </trkpt>
      <trkpt lat="45.87339" lon="4.80508">
        <ele>312.119</ele>
        <time>2012-05-19T14:23:00Z</time>
      </trkpt>
      <trkpt lat="45.87363" lon="4.80524">
        <ele>308.952</ele>
        <time>2012-05-19T14:23:04Z</time>
      </trkpt>
      <trkpt lat="45.87421" lon="4.8054">
        <ele>301.565</ele>
        <time>2012-05-19T14:23:11Z</time>
      </trkpt>
      <trkpt lat="45.8745" lon="4.80544">
        <ele>292.794</ele>
        <time>2012-05-19T14:23:16Z</time>
      </trkpt>
      <trkpt lat="45.87485" lon="4.80563">
        <ele>286.415</ele>
        <time>2012-05-19T14:23:21Z</time>
      </trkpt>
      <trkpt lat="45.87502" lon="4.80581">
        <ele>285.079</ele>
        <time>2012-05-19T14:23:24Z</time>
      </trkpt>
      <trkpt lat="45.87529" lon="4.8059">
        <ele>282.823</ele>
        <time>2012-05-19T14:23:28Z</time>
      </trkpt>
      <trkpt lat="45.87599" lon="4.80594">
        <ele>268.232</ele>
        <time>2012-05-19T14:23:35Z</time>
      </trkpt>
      <trkpt lat="45.8762" lon="4.80594">
        <ele>265.666</ele>
        <time>2012-05-19T14:23:37Z</time>
      </trkpt>
      <trkpt lat="45.87663" lon="4.80594">
        <ele>262.314</ele>
        <time>2012-05-19T14:23:45Z</time>
      </trkpt>
      <trkpt lat="45.87674" lon="4.80594">
        <ele>260.93</ele>
        <time>2012-05-19T14:23:49Z</time>
      </trkpt>
      <trkpt lat="45.87681" lon="4.80609">
        <ele>257.302</ele>
        <time>2012-05-19T14:23:54Z</time>
      </trkpt>
      <trkpt lat="45.87678" lon="4.80631">
        <ele>260.017</ele>
        <time>2012-05-19T14:24:02Z</time>
      </trkpt>
      <trkpt lat="45.87678" lon="4.80634">
        <ele>261.445</ele>
        <time>2012-05-19T14:24:08Z</time>
      </trkpt>
      <trkpt lat="45.87672" lon="4.80665">
        <ele>259.758</ele>
        <time>2012-05-19T14:24:16Z</time>
      </trkpt>
      <trkpt lat="45.87669" lon="4.80679">
        <ele>259.67</ele>
        <time>2012-05-19T14:24:20Z</time>
      </trkpt>
      <trkpt lat="45.8766" lon="4.80717">
        <ele>257.724</ele>
        <time>2012-05-19T14:24:30Z</time>
      </trkpt>
      <trkpt lat="45.87659" lon="4.80723">
        <ele>257.697</ele>
        <time>2012-05-19T14:24:31Z</time>
      </trkpt>
      <trkpt lat="45.87653" lon="4.80748">
        <ele>258.091</ele>
        <time>2012-05-19T14:24:35Z</time>
      </trkpt>
      <trkpt lat="45.87639" lon="4.80814">
        <ele>255.434</ele>
        <time>2012-05-19T14:24:44Z</time>
      </trkpt>
      <trkpt lat="45.87636" lon="4.80848">
        <ele>254.297</ele>
        <time>2012-05-19T14:24:52Z</time>
      </trkpt>
      <trkpt lat="45.87624" lon="4.80888">
        <ele>252.082</ele>
        <time>2012-05-19T14:25:02Z</time>
      </trkpt>
      <trkpt lat="45.87616" lon="4.8092">
        <ele>256.508</ele>
        <time>2012-05-19T14:25:10Z</time>
      </trkpt>
      <trkpt lat="45.87602" lon="4.80959">
        <ele>258.644</ele>
        <time>2012-05-19T14:25:20Z</time>
      </trkpt>
      <trkpt lat="45.87594" lon="4.80972">
        <ele>258.188</ele>
        <time>2012-05-19T14:25:23Z</time>
      </trkpt>
      <trkpt lat="45.87573" lon="4.81037">
        <ele>258.345</ele>
        <time>2012-05-19T14:25:33Z</time>
      </trkpt>
      <trkpt lat="45.87566" lon="4.81075">
        <ele>255.96</ele>
        <time>2012-05-19T14:25:38Z</time>
      </trkpt>
      <trkpt lat="45.87535" lon="4.81164">
        <ele>250.565</ele>
        <time>2012-05-19T14:25:47Z</time>
      </trkpt>
      <trkpt lat="45.87517" lon="4.81216">
        <ele>246.228</ele>
        <time>2012-05-19T14:25:52Z</time>
      </trkpt>
      <trkpt lat="45.87507" lon="4.81268">
        <ele>242.585</ele>
        <time>2012-05-19T14:26:01Z</time>
      </trkpt>
      <trkpt lat="45.87503" lon="4.81295">
        <ele>240.09</ele>
        <time>2012-05-19T14:26:05Z</time>
      </trkpt>
      <trkpt lat="45.87498" lon="4.81319">
        <ele>239.171</ele>
        <time>2012-05-19T14:26:08Z</time>
      </trkpt>
      <trkpt lat="45.87464" lon="4.81389">
        <ele>236.722</ele>
        <time>2012-05-19T14:26:16Z</time>
      </trkpt>
      <trkpt lat="45.87416" lon="4.81484">
        <ele>236.447</ele>
        <time>2012-05-19T14:26:27Z</time>
      </trkpt>
      <trkpt lat="45.87397" lon="4.81534">
        <ele>236.026</ele>
        <time>2012-05-19T14:26:33Z</time>
      </trkpt>
      <trkpt lat="45.87382" lon="4.81593">
        <ele>233.747</ele>
        <time>2012-05-19T14:26:40Z</time>
      </trkpt>
      <trkpt lat="45.87353" lon="4.81686">
        <ele>230.469</ele>
        <time>2012-05-19T14:26:50Z</time>
      </trkpt>
      <trkpt lat="45.87336" lon="4.81737">
        <ele>228.812</ele>
        <time>2012-05-19T14:26:56Z</time>
      </trkpt>
      <trkpt lat="45.87311" lon="4.81822">
        <ele>227.254</ele>
        <time>2012-05-19T14:27:07Z</time>
      </trkpt>
      <trkpt lat="45.87304" lon="4.81848">
        <ele>226.814</ele>
        <time>2012-05-19T14:27:10Z</time>
      </trkpt>
      <trkpt lat="45.87299" lon="4.81882">
        <ele>226.013</ele>
        <time>2012-05-19T14:27:14Z</time>
      </trkpt>
      <trkpt lat="45.87277" lon="4.81915">
        <ele>225.564</ele>
        <time>2012-05-19T14:27:19Z</time>
      </trkpt>
      <trkpt lat="45.87266" lon="4.81923">
        <ele>226.985</ele>
        <time>2012-05-19T14:27:21Z</time>
      </trkpt>
      <trkpt lat="45.87222" lon="4.8195">
        <ele>225.434</ele>
        <time>2012-05-19T14:27:31Z</time>
      </trkpt>
      <trkpt lat="45.87208" lon="4.81956">
        <ele>224.024</ele>
        <time>2012-05-19T14:27:34Z</time>
      </trkpt>
      <trkpt lat="45.87176" lon="4.81963">
        <ele>221.405</ele>
        <time>2012-05-19T14:27:40Z</time>
      </trkpt>
      <trkpt lat="45.87109" lon="4.81968">
        <ele>218.976</ele>
        <time>2012-05-19T14:27:51Z</time>
      </trkpt>
      <trkpt lat="45.87094" lon="4.81968">
        <ele>218.069</ele>
        <time>2012-05-19T14:27:53Z</time>
      </trkpt>
      <trkpt lat="45.87055" lon="4.81954">
        <ele>218.447</ele>
        <time>2012-05-19T14:27:58Z</time>
      </trkpt>
      <trkpt lat="45.87015" lon="4.81939">
        <ele>216.567</ele>
        <time>2012-05-19T14:28:03Z</time>
      </trkpt>
      <trkpt lat="45.86985" lon="4.81962">
        <ele>214.24</ele>
        <time>2012-05-19T14:28:09Z</time>
      </trkpt>
      <trkpt lat="45.86985" lon="4.81966">
        <ele>213.797</ele>
        <time>2012-05-19T14:28:10Z</time>
      </trkpt>
      <trkpt lat="45.86985" lon="4.81981">
        <ele>214.268</ele>
        <time>2012-05-19T14:28:20Z</time>
      </trkpt>
    </trkseg>
  </trk>
</gpx>